Observation data for Palo Duro Reservoir 1NW on 06/14/2019      Previous  Date  Next       Current Mesonet Observations  Soil Data  Daily Summary Page  Observations in Plain Language
KPD4 140500Z 16015KT 18/15 A2995 RMK A01 T01810153  RH  084%=      5-min Rain = 0
KPD4 140501Z 17016KT 18/16 A2995 RMK A01 T01820155  RH  084%=      5-min Rain = 0
KPD4 140502Z 17018KT 18/16 A2995 RMK A01 T01820155  RH  084%=      5-min Rain = 0
KPD4 140503Z 17020G25KT 18/15 A2994 RMK A01 T01820154  RH  084%=      5-min Rain = 0
KPD4 140504Z 16021G27KT 18/15 A2993 RMK A01 T01810153  RH  084%=      5-min Rain = 0
KPD4 140505Z 16023KT 18/15 A2993 RMK A01 T01820154  RH  084%=      5-min Rain = 0
KPD4 140506Z 16021KT 18/16 A2993 RMK A01 T01820155  RH  084%=      5-min Rain = 0
KPD4 140507Z 16023G29KT 18/16 A2993 RMK A01 T01830155  RH  084%=      5-min Rain = 0
KPD4 140508Z 16018KT 18/16 A2993 RMK A01 T01830157  RH  084%=      5-min Rain = 0
KPD4 140509Z 15019KT 18/16 A2993 RMK A01 T01830158  RH  085%=      5-min Rain = 0
KPD4 140510Z 16019KT 18/16 A2993 RMK A01 T01840156  RH  084%=      5-min Rain = 0
KPD4 140511Z 15017KT 19/16 A2993 RMK A01 T01850156  RH  083%=      5-min Rain = 0
KPD4 140512Z 16017KT 19/16 A2994 RMK A01 T01850156  RH  083%=      5-min Rain = 0
KPD4 140513Z 16018KT 19/16 A2994 RMK A01 T01850155  RH  083%=      5-min Rain = 0
KPD4 140514Z 17018KT 19/16 A2994 RMK A01 T01850155  RH  082%=      5-min Rain = 0
KPD4 140515Z 18018KT 19/15 A2994 RMK A01 T01860154  RH  082%=      5-min Rain = 0
KPD4 140516Z 18017KT 19/15 A2994 RMK A01 T01860154  RH  081%=      5-min Rain = 0
KPD4 140517Z 18019KT 19/16 A2994 RMK A01 T01860155  RH  082%=      5-min Rain = 0
KPD4 140518Z 18020G25KT 19/16 A2994 RMK A01 T01860155  RH  082%=      5-min Rain = 0
KPD4 140519Z 18018G24KT 19/15 A2994 RMK A01 T01860153  RH  081%=      5-min Rain = 0
KPD4 140520Z 18018KT 19/15 A2994 RMK A01 T01870153  RH  080%=      5-min Rain = 0
KPD4 140521Z 17017KT 19/15 A2994 RMK A01 T01870152  RH  080%=      5-min Rain = 0
KPD4 140522Z 17016KT 19/15 A2993 RMK A01 T01880150  RH  079%=      5-min Rain = 0
KPD4 140523Z 16016KT 19/15 A2994 RMK A01 T01890150  RH  078%=      5-min Rain = 0
KPD4 140524Z 17018G24KT 19/15 A2994 RMK A01 T01890151  RH  078%=      5-min Rain = 0
KPD4 140525Z 17019KT 19/15 A2994 RMK A01 T01900150  RH  078%=      5-min Rain = 0
KPD4 140526Z 16016KT 19/15 A2994 RMK A01 T01900149  RH  077%=      5-min Rain = 0
KPD4 140527Z 16017G22KT 19/15 A2994 RMK A01 T01910150  RH  077%=      5-min Rain = 0
KPD4 140528Z 17016KT 19/15 A2994 RMK A01 T01910152  RH  078%=      5-min Rain = 0
KPD4 140529Z 16019KT 19/15 A2994 RMK A01 T01900153  RH  079%=      5-min Rain = 0
KPD4 140530Z 16016KT 19/15 A2994 RMK A01 T01890154  RH  080%=      5-min Rain = 0
KPD4 140531Z 16021KT 19/15 A2994 RMK A01 T01890154  RH  080%=      5-min Rain = 0
KPD4 140532Z 17022KT 19/15 A2994 RMK A01 T01890154  RH  080%=      5-min Rain = 0
KPD4 140533Z 17022G28KT 19/15 A2994 RMK A01 T01880153  RH  080%=      5-min Rain = 0
KPD4 140534Z 16020G26KT 19/15 A2994 RMK A01 T01870153  RH  081%=      5-min Rain = 0
KPD4 140535Z 17021KT 19/15 A2995 RMK A01 T01860153  RH  081%=      5-min Rain = 0
KPD4 140536Z 17021KT 19/15 A2994 RMK A01 T01850153  RH  082%=      5-min Rain = 0
KPD4 140537Z 17021KT 19/15 A2994 RMK A01 T01850153  RH  081%=      5-min Rain = 0
KPD4 140538Z 17019G26KT 19/15 A2995 RMK A01 T01850153  RH  081%=      5-min Rain = 0
KPD4 140539Z 17021KT 19/15 A2995 RMK A01 T01850153  RH  082%=      5-min Rain = 0
KPD4 140540Z 17021G26KT 19/15 A2995 RMK A01 T01850152  RH  081%=      5-min Rain = 0
KPD4 140541Z 17022G27KT 19/15 A2994 RMK A01 T01850152  RH  081%=      5-min Rain = 0
KPD4 140542Z 17022KT 19/15 A2995 RMK A01 T01850151  RH  080%=      5-min Rain = 0
KPD4 140543Z 17022KT 19/15 A2995 RMK A01 T01850150  RH  080%=      5-min Rain = 0
KPD4 140544Z 17018G23KT 19/15 A2995 RMK A01 T01860150  RH  080%=      5-min Rain = 0
KPD4 140545Z 17020KT 19/15 A2995 RMK A01 T01850151  RH  080%=      5-min Rain = 0
KPD4 140546Z 17021G26KT 19/15 A2994 RMK A01 T01850151  RH  080%=      5-min Rain = 0
KPD4 140547Z 17021KT 19/15 A2995 RMK A01 T01850151  RH  081%=      5-min Rain = 0
KPD4 140548Z 17021KT 18/15 A2994 RMK A01 T01840151  RH  081%=      5-min Rain = 0
KPD4 140549Z 17020KT 19/15 A2994 RMK A01 T01850152  RH  081%=      5-min Rain = 0
KPD4 140550Z 17020KT 18/15 A2994 RMK A01 T01840152  RH  082%=      5-min Rain = 0
KPD4 140551Z 17021KT 18/15 A2994 RMK A01 T01840152  RH  082%=      5-min Rain = 0
KPD4 140552Z 17018G23KT 18/15 A2994 RMK A01 T01840152  RH  082%=      5-min Rain = 0
KPD4 140553Z 17018G23KT 18/15 A2994 RMK A01 T01840153  RH  082%=      5-min Rain = 0
KPD4 140554Z 18018G23KT 18/15 A2995 RMK A01 T01840153  RH  082%=      5-min Rain = 0
KPD4 140555Z 18018KT 18/15 A2995 RMK A01 T01830154  RH  083%=      5-min Rain = 0
KPD4 140556Z 17019G24KT 18/15 A2995 RMK A01 T01830154  RH  083%=      5-min Rain = 0
KPD4 140557Z 17017KT 18/15 A2995 RMK A01 T01820154  RH  083%=      5-min Rain = 0
KPD4 140558Z 17019G24KT 18/15 A2995 RMK A01 T01820154  RH  083%=      5-min Rain = 0
KPD4 140559Z 16020KT 18/15 A2995 RMK A01 T01820153  RH  083%=      5-min Rain = 0
KPD4 140600Z 16023G29KT 18/15 A2994 RMK A01 T01830153  RH  083%=      5-min Rain = 0
KPD4 140601Z 16023KT 18/15 A2995 RMK A01 T01840152  RH  082%=      5-min Rain = 0
KPD4 140602Z 17021G27KT 18/15 A2995 RMK A01 T01840153  RH  082%=      5-min Rain = 0
KPD4 140603Z 17019KT 18/15 A2995 RMK A01 T01840153  RH  082%=      5-min Rain = 0
KPD4 140604Z 17019G24KT 18/15 A2995 RMK A01 T01840153  RH  083%=      5-min Rain = 0
KPD4 140605Z 16019KT 18/15 A2994 RMK A01 T01830153  RH  082%=      5-min Rain = 0
KPD4 140606Z 16018KT 18/15 A2994 RMK A01 T01830153  RH  082%=      5-min Rain = 0
KPD4 140607Z 16019KT 18/15 A2994 RMK A01 T01830152  RH  082%=      5-min Rain = 0
KPD4 140608Z 17021KT 18/15 A2994 RMK A01 T01830151  RH  082%=      5-min Rain = 0
KPD4 140609Z 17019G24KT 18/15 A2994 RMK A01 T01840150  RH  081%=      5-min Rain = 0
KPD4 140610Z 18021G26KT 19/15 A2994 RMK A01 T01850149  RH  080%=      5-min Rain = 0
KPD4 140611Z 18018KT 19/15 A2994 RMK A01 T01860149  RH  079%=      5-min Rain = 0
KPD4 140612Z 18020G27KT 19/15 A2993 RMK A01 T01860149  RH  079%=      5-min Rain = 0
KPD4 140613Z 17021G26KT 19/15 A2993 RMK A01 T01860147  RH  078%=      5-min Rain = 0
KPD4 140614Z 17022G27KT 19/15 A2993 RMK A01 T01870147  RH  078%=      5-min Rain = 0
KPD4 140615Z 18019G25KT 19/15 A2993 RMK A01 T01880147  RH  077%=      5-min Rain = 0
KPD4 140616Z 18019G25KT 19/15 A2993 RMK A01 T01880148  RH  077%=      5-min Rain = 0
KPD4 140617Z 18023G30KT 19/15 A2993 RMK A01 T01880147  RH  077%=      5-min Rain = 0
KPD4 140618Z 17023G28KT 19/15 A2993 RMK A01 T01890147  RH  076%=      5-min Rain = 0
KPD4 140619Z 17021G26KT 19/15 A2992 RMK A01 T01890146  RH  076%=      5-min Rain = 0
KPD4 140620Z 17022G27KT 19/15 A2992 RMK A01 T01890147  RH  076%=      5-min Rain = 0
KPD4 140621Z 17022G27KT 19/15 A2992 RMK A01 T01900146  RH  076%=      5-min Rain = 0
KPD4 140622Z 17022G27KT 19/15 A2992 RMK A01 T01890146  RH  076%=      5-min Rain = 0
KPD4 140623Z 17023KT 19/15 A2992 RMK A01 T01890146  RH  076%=      5-min Rain = 0
KPD4 140624Z 17023KT 19/15 A2991 RMK A01 T01890146  RH  076%=      5-min Rain = 0
KPD4 140625Z 17022G27KT 19/15 A2991 RMK A01 T01890147  RH  076%=      5-min Rain = 0
KPD4 140626Z 17023KT 19/15 A2991 RMK A01 T01890147  RH  076%=      5-min Rain = 0
KPD4 140627Z 17023G28KT 19/15 A2991 RMK A01 T01890146  RH  076%=      5-min Rain = 0
KPD4 140628Z 17021G26KT 19/15 A2991 RMK A01 T01900146  RH  076%=      5-min Rain = 0
KPD4 140629Z 17023KT 19/15 A2991 RMK A01 T01900147  RH  076%=      5-min Rain = 0
KPD4 140630Z 17022G27KT 19/15 A2991 RMK A01 T01900146  RH  076%=      5-min Rain = 0
KPD4 140631Z 17022G27KT 19/15 A2991 RMK A01 T01900147  RH  076%=      5-min Rain = 0
KPD4 140632Z 17019KT 19/15 A2991 RMK A01 T01890148  RH  077%=      5-min Rain = 0
KPD4 140633Z 17020KT 19/15 A2991 RMK A01 T01890148  RH  077%=      5-min Rain = 0
KPD4 140634Z 17019G25KT 19/15 A2991 RMK A01 T01880147  RH  077%=      5-min Rain = 0
KPD4 140635Z 17019KT 19/15 A2991 RMK A01 T01880147  RH  077%=      5-min Rain = 0
KPD4 140636Z 17021KT 19/15 A2991 RMK A01 T01880147  RH  077%=      5-min Rain = 0
KPD4 140637Z 17019KT 19/15 A2991 RMK A01 T01880147  RH  077%=      5-min Rain = 0
KPD4 140638Z 17020G26KT 19/15 A2991 RMK A01 T01880148  RH  078%=      5-min Rain = 0
KPD4 140639Z 17020G25KT 19/15 A2991 RMK A01 T01870148  RH  078%=      5-min Rain = 0
KPD4 140640Z 16017KT 19/15 A299 RMK A01 T01870148  RH  078%=      5-min Rain = 0
KPD4 140641Z 17019KT 19/15 A299 RMK A01 T01870148  RH  078%=      5-min Rain = 0
KPD4 140642Z 17018G25KT 19/15 A299 RMK A01 T01870147  RH  078%=      5-min Rain = 0
KPD4 140643Z 17018KT 19/15 A299 RMK A01 T01870147  RH  078%=      5-min Rain = 0
KPD4 140644Z 17018KT 19/15 A299 RMK A01 T01870148  RH  078%=      5-min Rain = 0
KPD4 140645Z 17016KT 19/15 A299 RMK A01 T01870148  RH  078%=      5-min Rain = 0
KPD4 140646Z 17017KT 19/15 A299 RMK A01 T01870149  RH  078%=      5-min Rain = 0
KPD4 140647Z 17015KT 19/15 A299 RMK A01 T01860148  RH  079%=      5-min Rain = 0
KPD4 140648Z 17015G21KT 19/15 A299 RMK A01 T01860148  RH  079%=      5-min Rain = 0
KPD4 140649Z 17017G22KT 19/15 A299 RMK A01 T01860147  RH  078%=      5-min Rain = 0
KPD4 140650Z 17016G22KT 19/15 A299 RMK A01 T01870147  RH  078%=      5-min Rain = 0
KPD4 140651Z 17019KT 19/15 A299 RMK A01 T01880147  RH  077%=      5-min Rain = 0
KPD4 140652Z 17017KT 19/15 A299 RMK A01 T01890146  RH  076%=      5-min Rain = 0
KPD4 140653Z 17019G24KT 19/15 A299 RMK A01 T01890145  RH  076%=      5-min Rain = 0
KPD4 140654Z 18017KT 19/15 A299 RMK A01 T01900146  RH  075%=      5-min Rain = 0
KPD4 140655Z 18017KT 19/15 A299 RMK A01 T01900145  RH  075%=      5-min Rain = 0
KPD4 140656Z 17018KT 19/15 A299 RMK A01 T01900145  RH  075%=      5-min Rain = 0
KPD4 140657Z 18019KT 19/14 A299 RMK A01 T01900144  RH  075%=      5-min Rain = 0
KPD4 140658Z 18018KT 19/14 A299 RMK A01 T01910144  RH  074%=      5-min Rain = 0
KPD4 140659Z 18017KT 19/14 A299 RMK A01 T01910144  RH  074%=      5-min Rain = 0
KPD4 140700Z 18019G25KT 19/14 A299 RMK A01 T01910143  RH  074%=      5-min Rain = 0
KPD4 140701Z 18019KT 19/14 A299 RMK A01 T01910140  RH  072%=      5-min Rain = 0
KPD4 140702Z 17021KT 19/14 A299 RMK A01 T01920139  RH  071%=      5-min Rain = 0
KPD4 140703Z 18018KT 19/14 A299 RMK A01 T01930138  RH  070%=      5-min Rain = 0
KPD4 140704Z 18020KT 19/14 A299 RMK A01 T01930138  RH  070%=      5-min Rain = 0
KPD4 140705Z 18021KT 19/14 A2989 RMK A01 T01940137  RH  069%=      5-min Rain = 0
KPD4 140706Z 17020KT 19/14 A2989 RMK A01 T01940136  RH  069%=      5-min Rain = 0
KPD4 140707Z 17017KT 19/14 A2989 RMK A01 T01940137  RH  069%=      5-min Rain = 0
KPD4 140708Z 17022KT 19/14 A2989 RMK A01 T01940136  RH  069%=      5-min Rain = 0
KPD4 140709Z 17020KT 19/14 A2989 RMK A01 T01940135  RH  069%=      5-min Rain = 0
KPD4 140710Z 17018KT 19/13 A2989 RMK A01 T01940134  RH  068%=      5-min Rain = 0
KPD4 140711Z 17018KT 19/14 A2989 RMK A01 T01940135  RH  069%=      5-min Rain = 0
KPD4 140712Z 17018KT 19/14 A2989 RMK A01 T01940135  RH  069%=      5-min Rain = 0
KPD4 140713Z 17017KT 19/14 A2989 RMK A01 T01930135  RH  069%=      5-min Rain = 0
KPD4 140714Z 18015G20KT 19/14 A2989 RMK A01 T01920135  RH  069%=      5-min Rain = 0
KPD4 140715Z 17016KT 19/14 A2989 RMK A01 T01920135  RH  070%=      5-min Rain = 0
KPD4 140716Z 17016KT 19/14 A2989 RMK A01 T01920135  RH  070%=      5-min Rain = 0
KPD4 140717Z 17016KT 19/13 A2989 RMK A01 T01910134  RH  069%=      5-min Rain = 0
KPD4 140718Z 17014KT 19/14 A2989 RMK A01 T01910135  RH  070%=      5-min Rain = 0
KPD4 140719Z 17014G19KT 19/14 A2989 RMK A01 T01910135  RH  070%=      5-min Rain = 0
KPD4 140720Z 17015KT 19/13 A2989 RMK A01 T01910134  RH  070%=      5-min Rain = 0
KPD4 140721Z 18015KT 19/13 A2989 RMK A01 T01900134  RH  070%=      5-min Rain = 0
KPD4 140722Z 17015KT 19/14 A2989 RMK A01 T01900135  RH  070%=      5-min Rain = 0
KPD4 140723Z 17015KT 19/13 A2989 RMK A01 T01890133  RH  070%=      5-min Rain = 0
KPD4 140724Z 16016KT 19/13 A2988 RMK A01 T01890133  RH  070%=      5-min Rain = 0
KPD4 140725Z 16016KT 19/13 A2988 RMK A01 T01900132  RH  069%=      5-min Rain = 0
KPD4 140726Z 17018KT 19/13 A2988 RMK A01 T01900131  RH  069%=      5-min Rain = 0
KPD4 140727Z 18016KT 19/13 A2988 RMK A01 T01910131  RH  068%=      5-min Rain = 0
KPD4 140728Z 18018KT 19/13 A2989 RMK A01 T01920132  RH  068%=      5-min Rain = 0
KPD4 140729Z 18016G23KT 19/13 A2989 RMK A01 T01920130  RH  067%=      5-min Rain = 0
KPD4 140730Z 18014KT 19/13 A2989 RMK A01 T01920131  RH  068%=      5-min Rain = 0
KPD4 140731Z 18016G21KT 19/13 A2989 RMK A01 T01910131  RH  068%=      5-min Rain = 0
KPD4 140732Z 18016KT 19/13 A2989 RMK A01 T01900130  RH  068%=      5-min Rain = 0
KPD4 140733Z 18016KT 19/13 A2989 RMK A01 T01900130  RH  068%=      5-min Rain = 0
KPD4 140734Z 19016KT 19/13 A2989 RMK A01 T01900130  RH  068%=      5-min Rain = 0
KPD4 140735Z 18015KT 19/13 A2989 RMK A01 T01900130  RH  068%=      5-min Rain = 0
KPD4 140736Z 19016KT 19/13 A299 RMK A01 T01890131  RH  069%=      5-min Rain = 0
KPD4 140737Z 20017KT 19/13 A299 RMK A01 T01890131  RH  069%=      5-min Rain = 0
KPD4 140738Z 20018KT 19/13 A299 RMK A01 T01880132  RH  070%=      5-min Rain = 0
KPD4 140739Z 21018KT 19/13 A299 RMK A01 T01870133  RH  071%=      5-min Rain = 0
KPD4 140740Z 20019G24KT 19/13 A299 RMK A01 T01870132  RH  071%=      5-min Rain = 0
KPD4 140741Z 20018G24KT 19/13 A299 RMK A01 T01870133  RH  071%=      5-min Rain = 0
KPD4 140742Z 20016KT 19/13 A299 RMK A01 T01860134  RH  071%=      5-min Rain = 0
KPD4 140743Z 20017KT 19/13 A2991 RMK A01 T01850134  RH  072%=      5-min Rain = 0
KPD4 140744Z 20015G20KT 19/13 A2991 RMK A01 T01850134  RH  072%=      5-min Rain = 0
KPD4 140745Z 20013KT 18/13 A2991 RMK A01 T01840134  RH  072%=      5-min Rain = 0
KPD4 140746Z 21016KT 18/13 A2991 RMK A01 T01830133  RH  072%=      5-min Rain = 0
KPD4 140747Z 20016KT 18/13 A2991 RMK A01 T01830132  RH  072%=      5-min Rain = 0
KPD4 140748Z 20013KT 18/13 A2991 RMK A01 T01840132  RH  071%=      5-min Rain = 0
KPD4 140749Z 19014KT 19/13 A2991 RMK A01 T01850133  RH  072%=      5-min Rain = 0
KPD4 140750Z 20013KT 18/13 A2991 RMK A01 T01840133  RH  072%=      5-min Rain = 0
KPD4 140751Z 21012KT 18/13 A2991 RMK A01 T01830133  RH  073%=      5-min Rain = 0
KPD4 140752Z 20013KT 18/13 A2991 RMK A01 T01820133  RH  073%=      5-min Rain = 0
KPD4 140753Z 20012KT 18/13 A2991 RMK A01 T01810133  RH  074%=      5-min Rain = 0
KPD4 140754Z 20013KT 18/13 A2991 RMK A01 T01800133  RH  074%=      5-min Rain = 0
KPD4 140755Z 20015KT 18/13 A2991 RMK A01 T01800132  RH  073%=      5-min Rain = 0
KPD4 140756Z 20014KT 18/13 A2991 RMK A01 T01810133  RH  073%=      5-min Rain = 0
KPD4 140757Z 20013KT 18/13 A2991 RMK A01 T01810134  RH  074%=      5-min Rain = 0
KPD4 140758Z 20014KT 18/13 A2991 RMK A01 T01790133  RH  074%=      5-min Rain = 0
KPD4 140759Z 20014KT 18/13 A299 RMK A01 T01790132  RH  074%=      5-min Rain = 0
KPD4 140800Z 20014KT 18/13 A299 RMK A01 T01800133  RH  074%=      5-min Rain = 0
KPD4 140801Z 21015KT 18/13 A2991 RMK A01 T01800132  RH  074%=      5-min Rain = 0
KPD4 140802Z 21015KT 18/13 A2991 RMK A01 T01800131  RH  073%=      5-min Rain = 0
KPD4 140803Z 21016KT 18/13 A2991 RMK A01 T01810130  RH  072%=      5-min Rain = 0
KPD4 140804Z 21015G21KT 18/13 A2991 RMK A01 T01810131  RH  072%=      5-min Rain = 0
KPD4 140805Z 20016KT 18/13 A2991 RMK A01 T01810130  RH  072%=      5-min Rain = 0
KPD4 140806Z 21015G20KT 18/13 A299 RMK A01 T01820130  RH  071%=      5-min Rain = 0
KPD4 140807Z 20018KT 18/13 A299 RMK A01 T01820129  RH  071%=      5-min Rain = 0
KPD4 140808Z 21019KT 18/13 A299 RMK A01 T01840128  RH  070%=      5-min Rain = 0
KPD4 140809Z 20019G24KT 19/13 A299 RMK A01 T01850129  RH  070%=      5-min Rain = 0
KPD4 140810Z 20017KT 19/13 A299 RMK A01 T01850128  RH  069%=      5-min Rain = 0
KPD4 140811Z 20015KT 19/13 A299 RMK A01 T01850129  RH  070%=      5-min Rain = 0
KPD4 140812Z 20016KT 18/13 A299 RMK A01 T01840129  RH  070%=      5-min Rain = 0
KPD4 140813Z 21017KT 18/13 A299 RMK A01 T01840129  RH  070%=      5-min Rain = 0
KPD4 140814Z 21017KT 18/13 A299 RMK A01 T01840129  RH  070%=      5-min Rain = 0
KPD4 140815Z 20016KT 18/13 A299 RMK A01 T01830129  RH  071%=      5-min Rain = 0
KPD4 140816Z 20017KT 18/13 A299 RMK A01 T01830130  RH  071%=      5-min Rain = 0
KPD4 140817Z 20019G24KT 18/13 A299 RMK A01 T01830129  RH  071%=      5-min Rain = 0
KPD4 140818Z 20018KT 18/13 A299 RMK A01 T01840129  RH  070%=      5-min Rain = 0
KPD4 140819Z 20017KT 18/13 A299 RMK A01 T01840129  RH  070%=      5-min Rain = 0
KPD4 140820Z 20018KT 19/13 A299 RMK A01 T01850129  RH  070%=      5-min Rain = 0
KPD4 140821Z 20019KT 18/13 A299 RMK A01 T01840129  RH  070%=      5-min Rain = 0
KPD4 140822Z 20020KT 19/13 A299 RMK A01 T01850127  RH  069%=      5-min Rain = 0
KPD4 140823Z 20019KT 19/13 A299 RMK A01 T01860127  RH  068%=      5-min Rain = 0
KPD4 140824Z 20019KT 19/13 A299 RMK A01 T01870127  RH  068%=      5-min Rain = 0
KPD4 140825Z 21020KT 19/13 A299 RMK A01 T01880125  RH  067%=      5-min Rain = 0
KPD4 140826Z 21018KT 19/13 A299 RMK A01 T01890126  RH  067%=      5-min Rain = 0
KPD4 140827Z 21018KT 19/13 A299 RMK A01 T01890126  RH  067%=      5-min Rain = 0
KPD4 140828Z 21018KT 19/13 A299 RMK A01 T01880127  RH  067%=      5-min Rain = 0
KPD4 140829Z 20018KT 19/13 A299 RMK A01 T01880127  RH  068%=      5-min Rain = 0
KPD4 140830Z 20016KT 19/13 A299 RMK A01 T01870126  RH  068%=      5-min Rain = 0
KPD4 140831Z 20018KT 19/13 A299 RMK A01 T01870126  RH  068%=      5-min Rain = 0
KPD4 140832Z 20018KT 19/13 A299 RMK A01 T01870126  RH  068%=      5-min Rain = 0
KPD4 140833Z 20017KT 19/13 A299 RMK A01 T01860126  RH  068%=      5-min Rain = 0
KPD4 140834Z 20017KT 19/13 A299 RMK A01 T01860126  RH  068%=      5-min Rain = 0
KPD4 140835Z 19017KT 19/13 A299 RMK A01 T01860126  RH  068%=      5-min Rain = 0
KPD4 140836Z 19017G22KT 19/13 A299 RMK A01 T01860127  RH  068%=      5-min Rain = 0
KPD4 140837Z 19015KT 19/13 A299 RMK A01 T01860128  RH  069%=      5-min Rain = 0
KPD4 140838Z 19018KT 19/13 A299 RMK A01 T01850127  RH  069%=      5-min Rain = 0
KPD4 140839Z 19017KT 19/13 A299 RMK A01 T01850127  RH  069%=      5-min Rain = 0
KPD4 140840Z 19016KT 19/13 A299 RMK A01 T01850128  RH  069%=      5-min Rain = 0
KPD4 140841Z 19018KT 19/13 A2989 RMK A01 T01850128  RH  069%=      5-min Rain = 0
KPD4 140842Z 19014KT 19/13 A299 RMK A01 T01850128  RH  070%=      5-min Rain = 0
KPD4 140843Z 19016KT 18/13 A299 RMK A01 T01830129  RH  070%=      5-min Rain = 0
KPD4 140844Z 20016KT 18/13 A299 RMK A01 T01820128  RH  070%=      5-min Rain = 0
KPD4 140845Z 19014KT 18/13 A299 RMK A01 T01820129  RH  071%=      5-min Rain = 0
KPD4 140846Z 19013KT 18/13 A299 RMK A01 T01810129  RH  072%=      5-min Rain = 0
KPD4 140847Z 20014G19KT 18/13 A299 RMK A01 T01800129  RH  072%=      5-min Rain = 0
KPD4 140848Z 20013G18KT 18/13 A299 RMK A01 T01800129  RH  072%=      5-min Rain = 0
KPD4 140849Z 20014KT 18/13 A299 RMK A01 T01800129  RH  072%=      5-min Rain = 0
KPD4 140850Z 20015KT 18/13 A2989 RMK A01 T01790128  RH  072%=      5-min Rain = 0
KPD4 140851Z 20011KT 18/13 A2989 RMK A01 T01810128  RH  071%=      5-min Rain = 0
KPD4 140852Z 20012KT 18/13 A2989 RMK A01 T01810128  RH  071%=      5-min Rain = 0
KPD4 140853Z 20014KT 18/13 A2989 RMK A01 T01810128  RH  071%=      5-min Rain = 0
KPD4 140854Z 19013KT 18/13 A2989 RMK A01 T01810128  RH  071%=      5-min Rain = 0
KPD4 140855Z 20014KT 18/13 A2989 RMK A01 T01810128  RH  071%=      5-min Rain = 0
KPD4 140856Z 19013KT 18/13 A2989 RMK A01 T01810129  RH  072%=      5-min Rain = 0
KPD4 140857Z 19016KT 18/13 A2989 RMK A01 T01800129  RH  072%=      5-min Rain = 0
KPD4 140858Z 19014KT 18/13 A2989 RMK A01 T01800129  RH  072%=      5-min Rain = 0
KPD4 140859Z 19014KT 18/13 A2989 RMK A01 T01810130  RH  072%=      5-min Rain = 0
KPD4 140900Z 19015G21KT 18/13 A2989 RMK A01 T01800130  RH  072%=      5-min Rain = 0
KPD4 140901Z 19016KT 18/13 A2989 RMK A01 T01800130  RH  073%=      5-min Rain = 0
KPD4 140902Z 19015KT 18/13 A2989 RMK A01 T01800130  RH  073%=      5-min Rain = 0
KPD4 140903Z 19016KT 18/13 A2989 RMK A01 T01800130  RH  073%=      5-min Rain = 0
KPD4 140904Z 19018KT 18/13 A2989 RMK A01 T01800131  RH  073%=      5-min Rain = 0
KPD4 140905Z 19017KT 18/13 A2989 RMK A01 T01800130  RH  073%=      5-min Rain = 0
KPD4 140906Z 19018KT 18/13 A2989 RMK A01 T01800131  RH  073%=      5-min Rain = 0
KPD4 140907Z 19016KT 18/13 A2989 RMK A01 T01800131  RH  073%=      5-min Rain = 0
KPD4 140908Z 19017KT 18/13 A2989 RMK A01 T01800131  RH  073%=      5-min Rain = 0
KPD4 140909Z 20016KT 18/13 A2989 RMK A01 T01790132  RH  074%=      5-min Rain = 0
KPD4 140910Z 19017KT 18/13 A2988 RMK A01 T01790132  RH  074%=      5-min Rain = 0
KPD4 140911Z 19016KT 18/13 A2988 RMK A01 T01790132  RH  074%=      5-min Rain = 0
KPD4 140912Z 19015KT 18/13 A2988 RMK A01 T01780133  RH  075%=      5-min Rain = 0
KPD4 140913Z 19020KT 18/13 A2988 RMK A01 T01780133  RH  075%=      5-min Rain = 0
KPD4 140914Z 19020G26KT 18/13 A2988 RMK A01 T01780133  RH  075%=      5-min Rain = 0
KPD4 140915Z 19018KT 18/13 A2988 RMK A01 T01780133  RH  075%=      5-min Rain = 0
KPD4 140916Z 19020KT 18/13 A2988 RMK A01 T01780134  RH  075%=      5-min Rain = 0
KPD4 140917Z 19019G25KT 18/13 A2988 RMK A01 T01780134  RH  075%=      5-min Rain = 0
KPD4 140918Z 19022G27KT 18/13 A2988 RMK A01 T01780134  RH  075%=      5-min Rain = 0
KPD4 140919Z 19022KT 18/13 A2988 RMK A01 T01780134  RH  075%=      5-min Rain = 0
KPD4 140920Z 19017G22KT 18/13 A2988 RMK A01 T01780134  RH  075%=      5-min Rain = 0
KPD4 140921Z 19018KT 18/14 A2988 RMK A01 T01770135  RH  076%=      5-min Rain = 0
KPD4 140922Z 19019KT 18/14 A2988 RMK A01 T01770135  RH  076%=      5-min Rain = 0
KPD4 140923Z 19019G25KT 18/14 A2988 RMK A01 T01770135  RH  076%=      5-min Rain = 0
KPD4 140924Z 19016KT 18/14 A2988 RMK A01 T01760135  RH  076%=      5-min Rain = 0
KPD4 140925Z 19017KT 18/14 A2988 RMK A01 T01760135  RH  077%=      5-min Rain = 0
KPD4 140926Z 19016KT 18/14 A2988 RMK A01 T01760136  RH  077%=      5-min Rain = 0
KPD4 140927Z 19016G21KT 18/14 A2989 RMK A01 T01750136  RH  078%=      5-min Rain = 0
KPD4 140928Z 19017KT 17/14 A2988 RMK A01 T01740136  RH  078%=      5-min Rain = 0
KPD4 140929Z 19016KT 17/14 A2988 RMK A01 T01740136  RH  078%=      5-min Rain = 0
KPD4 140930Z 19016KT 17/14 A2989 RMK A01 T01740136  RH  078%=      5-min Rain = 0
KPD4 140931Z 19015KT 17/14 A2989 RMK A01 T01740136  RH  079%=      5-min Rain = 0
KPD4 140932Z 19017KT 17/14 A2989 RMK A01 T01740136  RH  079%=      5-min Rain = 0
KPD4 140933Z 19015KT 17/14 A2989 RMK A01 T01740137  RH  079%=      5-min Rain = 0
KPD4 140934Z 19014G19KT 17/14 A2989 RMK A01 T01730137  RH  079%=      5-min Rain = 0
KPD4 140935Z 19015KT 17/14 A2989 RMK A01 T01730137  RH  080%=      5-min Rain = 0
KPD4 140936Z 19015KT 17/14 A2989 RMK A01 T01720137  RH  080%=      5-min Rain = 0
KPD4 140937Z 19015KT 17/14 A2989 RMK A01 T01720137  RH  080%=      5-min Rain = 0
KPD4 140938Z 19018KT 17/14 A2989 RMK A01 T01720137  RH  080%=      5-min Rain = 0
KPD4 140939Z 19014KT 17/14 A2989 RMK A01 T01720137  RH  080%=      5-min Rain = 0
KPD4 140940Z 19015KT 17/14 A2989 RMK A01 T01720138  RH  080%=      5-min Rain = 0
KPD4 140941Z 19016KT 17/14 A2989 RMK A01 T01720138  RH  080%=      5-min Rain = 0
KPD4 140942Z 19015KT 17/14 A299 RMK A01 T01710137  RH  080%=      5-min Rain = 0
KPD4 140943Z 19013KT 17/14 A299 RMK A01 T01720138  RH  081%=      5-min Rain = 0
KPD4 140944Z 19012KT 17/14 A299 RMK A01 T01700138  RH  081%=      5-min Rain = 0
KPD4 140945Z 19014KT 17/14 A2989 RMK A01 T01690138  RH  082%=      5-min Rain = 0
KPD4 140946Z 20013KT 17/14 A2989 RMK A01 T01690138  RH  082%=      5-min Rain = 0
KPD4 140947Z 19013KT 17/14 A2989 RMK A01 T01690138  RH  082%=      5-min Rain = 0
KPD4 140948Z 19014KT 17/14 A2989 RMK A01 T01690138  RH  082%=      5-min Rain = 0
KPD4 140949Z 19014KT 17/14 A2989 RMK A01 T01690138  RH  082%=      5-min Rain = 0
KPD4 140950Z 19014KT 17/14 A2989 RMK A01 T01690138  RH  082%=      5-min Rain = 0
KPD4 140951Z 19013KT 17/14 A2989 RMK A01 T01700138  RH  082%=      5-min Rain = 0
KPD4 140952Z 19012KT 17/14 A2989 RMK A01 T01700139  RH  082%=      5-min Rain = 0
KPD4 140953Z 19013KT 17/14 A2989 RMK A01 T01690139  RH  082%=      5-min Rain = 0
KPD4 140954Z 19011KT 17/14 A2989 RMK A01 T01690139  RH  082%=      5-min Rain = 0
KPD4 140955Z 19013KT 17/14 A2989 RMK A01 T01680139  RH  083%=      5-min Rain = 0
KPD4 140956Z 19012KT 17/14 A2989 RMK A01 T01690139  RH  083%=      5-min Rain = 0
KPD4 140957Z 18013KT 17/14 A2989 RMK A01 T01680139  RH  083%=      5-min Rain = 0
KPD4 140958Z 18012KT 17/14 A2989 RMK A01 T01680139  RH  083%=      5-min Rain = 0
KPD4 140959Z 19013KT 17/14 A2989 RMK A01 T01680139  RH  083%=      5-min Rain = 0
KPD4 141000Z 19015KT 17/14 A2989 RMK A01 T01680138  RH  083%=      5-min Rain = 0
KPD4 141001Z 18013KT 17/14 A2989 RMK A01 T01680138  RH  082%=      5-min Rain = 0
KPD4 141002Z 18011KT 17/14 A2989 RMK A01 T01690138  RH  082%=      5-min Rain = 0
KPD4 141003Z 19012KT 17/14 A2988 RMK A01 T01680139  RH  082%=      5-min Rain = 0
KPD4 141004Z 18013KT 17/14 A2988 RMK A01 T01680138  RH  082%=      5-min Rain = 0
KPD4 141005Z 18014KT 17/14 A2988 RMK A01 T01680138  RH  082%=      5-min Rain = 0
KPD4 141006Z 18013KT 17/14 A2988 RMK A01 T01690138  RH  082%=      5-min Rain = 0
KPD4 141007Z 18014KT 17/14 A2988 RMK A01 T01690138  RH  082%=      5-min Rain = 0
KPD4 141008Z 18012KT 17/14 A2988 RMK A01 T01690139  RH  082%=      5-min Rain = 0
KPD4 141009Z 18013KT 17/14 A2988 RMK A01 T01680139  RH  083%=      5-min Rain = 0
KPD4 141010Z 19012KT 17/14 A2988 RMK A01 T01680139  RH  083%=      5-min Rain = 0
KPD4 141011Z 18011KT 17/14 A2988 RMK A01 T01680139  RH  083%=      5-min Rain = 0
KPD4 141012Z 18011KT 17/14 A2988 RMK A01 T01670139  RH  083%=      5-min Rain = 0
KPD4 141013Z 18012KT 17/14 A2988 RMK A01 T01670139  RH  083%=      5-min Rain = 0
KPD4 141014Z 18013KT 17/14 A2988 RMK A01 T01660139  RH  084%=      5-min Rain = 0
KPD4 141015Z 18012KT 17/14 A2988 RMK A01 T01660139  RH  084%=      5-min Rain = 0
KPD4 141016Z 18012KT 17/14 A2988 RMK A01 T01660138  RH  083%=      5-min Rain = 0
KPD4 141017Z 18012KT 17/14 A2988 RMK A01 T01670139  RH  083%=      5-min Rain = 0
KPD4 141018Z 18013KT 17/14 A2988 RMK A01 T01670139  RH  083%=      5-min Rain = 0
KPD4 141019Z 19012KT 17/14 A2988 RMK A01 T01670139  RH  083%=      5-min Rain = 0
KPD4 141020Z 19013KT 17/14 A2988 RMK A01 T01680139  RH  083%=      5-min Rain = 0
KPD4 141021Z 19012KT 17/14 A2988 RMK A01 T01670139  RH  083%=      5-min Rain = 0
KPD4 141022Z 19012KT 17/14 A2988 RMK A01 T01670139  RH  083%=      5-min Rain = 0
KPD4 141023Z 19013KT 17/14 A2988 RMK A01 T01670139  RH  083%=      5-min Rain = 0
KPD4 141024Z 19013KT 17/14 A2988 RMK A01 T01680139  RH  083%=      5-min Rain = 0
KPD4 141025Z 19012KT 17/14 A2988 RMK A01 T01670139  RH  083%=      5-min Rain = 0
KPD4 141026Z 19014KT 17/14 A2988 RMK A01 T01680139  RH  083%=      5-min Rain = 0
KPD4 141027Z 19014KT 17/14 A2988 RMK A01 T01670139  RH  083%=      5-min Rain = 0
KPD4 141028Z 19014KT 17/14 A2988 RMK A01 T01680139  RH  083%=      5-min Rain = 0
KPD4 141029Z 19015KT 17/14 A2988 RMK A01 T01680139  RH  083%=      5-min Rain = 0
KPD4 141030Z 19016KT 17/14 A2987 RMK A01 T01690139  RH  082%=      5-min Rain = 0
KPD4 141031Z 19014KT 17/14 A2987 RMK A01 T01690139  RH  082%=      5-min Rain = 0
KPD4 141032Z 19015KT 17/14 A2987 RMK A01 T01690139  RH  082%=      5-min Rain = 0
KPD4 141033Z 19014KT 17/14 A2987 RMK A01 T01690139  RH  082%=      5-min Rain = 0
KPD4 141034Z 18015KT 17/14 A2987 RMK A01 T01690139  RH  083%=      5-min Rain = 0
KPD4 141035Z 18015KT 17/14 A2987 RMK A01 T01690139  RH  083%=      5-min Rain = 0
KPD4 141036Z 19014KT 17/14 A2987 RMK A01 T01690139  RH  082%=      5-min Rain = 0
KPD4 141037Z 19013KT 17/14 A2987 RMK A01 T01690139  RH  083%=      5-min Rain = 0
KPD4 141038Z 19014KT 17/14 A2987 RMK A01 T01690139  RH  083%=      5-min Rain = 0
KPD4 141039Z 19013KT 17/14 A2987 RMK A01 T01680139  RH  083%=      5-min Rain = 0
KPD4 141040Z 19014KT 17/14 A2987 RMK A01 T01680139  RH  083%=      5-min Rain = 0
KPD4 141041Z 19014KT 17/14 A2987 RMK A01 T01680139  RH  083%=      5-min Rain = 0
KPD4 141042Z 19015KT 17/14 A2987 RMK A01 T01670139  RH  083%=      5-min Rain = 0
KPD4 141043Z 19013KT 17/14 A2987 RMK A01 T01680139  RH  083%=      5-min Rain = 0
KPD4 141044Z 19014KT 17/14 A2987 RMK A01 T01680139  RH  083%=      5-min Rain = 0
KPD4 141045Z 19014KT 17/14 A2987 RMK A01 T01680139  RH  083%=      5-min Rain = 0
KPD4 141046Z 19015KT 17/14 A2987 RMK A01 T01680139  RH  083%=      5-min Rain = 0
KPD4 141047Z 19013KT 17/14 A2987 RMK A01 T01680139  RH  083%=      5-min Rain = 0
KPD4 141048Z 19015KT 17/14 A2986 RMK A01 T01680139  RH  083%=      5-min Rain = 0
KPD4 141049Z 19016KT 17/14 A2986 RMK A01 T01690139  RH  082%=      5-min Rain = 0
KPD4 141050Z 19016KT 17/14 A2987 RMK A01 T01700139  RH  082%=      5-min Rain = 0
KPD4 141051Z 19013KT 17/14 A2987 RMK A01 T01710139  RH  082%=      5-min Rain = 0
KPD4 141052Z 20012KT 17/14 A2987 RMK A01 T01710140  RH  082%=      5-min Rain = 0
KPD4 141053Z 19014KT 17/14 A2987 RMK A01 T01700140  RH  082%=      5-min Rain = 0
KPD4 141054Z 20013KT 17/14 A2987 RMK A01 T01700140  RH  082%=      5-min Rain = 0
KPD4 141055Z 20014KT 17/14 A2987 RMK A01 T01700140  RH  083%=      5-min Rain = 0
KPD4 141056Z 20014KT 17/14 A2987 RMK A01 T01700140  RH  083%=      5-min Rain = 0
KPD4 141057Z 20013KT 17/14 A2987 RMK A01 T01700140  RH  083%=      5-min Rain = 0
KPD4 141058Z 20015KT 17/14 A2987 RMK A01 T01700140  RH  083%=      5-min Rain = 0
KPD4 141059Z 19013KT 17/14 A2987 RMK A01 T01700140  RH  083%=      5-min Rain = 0
KPD4 141100Z 20014KT 17/14 A2987 RMK A01 T01700140  RH  083%=      5-min Rain = 0
KPD4 141101Z 20015KT 17/14 A2987 RMK A01 T01700141  RH  083%=      5-min Rain = 0
KPD4 141102Z 19015KT 17/14 A2987 RMK A01 T01700141  RH  083%=      5-min Rain = 0
KPD4 141103Z 19013G18KT 17/14 A2987 RMK A01 T01710141  RH  083%=      5-min Rain = 0
KPD4 141104Z 19015KT 17/14 A2987 RMK A01 T01710141  RH  083%=      5-min Rain = 0
KPD4 141105Z 20017KT 17/14 A2987 RMK A01 T01710141  RH  083%=      5-min Rain = 0
KPD4 141106Z 19015KT 17/14 A2987 RMK A01 T01720141  RH  082%=      5-min Rain = 0
KPD4 141107Z 20014G19KT 17/14 A2987 RMK A01 T01720142  RH  082%=      5-min Rain = 0
KPD4 141108Z 20017KT 17/14 A2987 RMK A01 T01720142  RH  082%=      5-min Rain = 0
KPD4 141109Z 19016KT 17/14 A2987 RMK A01 T01720141  RH  082%=      5-min Rain = 0
KPD4 141110Z 19015KT 17/14 A2987 RMK A01 T01730141  RH  082%=      5-min Rain = 0
KPD4 141111Z 20014KT 17/14 A2987 RMK A01 T01730142  RH  082%=      5-min Rain = 0
KPD4 141112Z 19015KT 17/14 A2987 RMK A01 T01730142  RH  082%=      5-min Rain = 0
KPD4 141113Z 19017KT 17/14 A2987 RMK A01 T01720142  RH  082%=      5-min Rain = 0
KPD4 141114Z 19014KT 17/14 A2987 RMK A01 T01730141  RH  082%=      5-min Rain = 0
KPD4 141115Z 19016KT 17/14 A2987 RMK A01 T01730142  RH  082%=      5-min Rain = 0
KPD4 141116Z 19015KT 17/14 A2987 RMK A01 T01730142  RH  082%=      5-min Rain = 0
KPD4 141117Z 19014KT 17/14 A2987 RMK A01 T01730142  RH  082%=      5-min Rain = 0
KPD4 141118Z 19017KT 17/14 A2987 RMK A01 T01730142  RH  082%=      5-min Rain = 0
KPD4 141119Z 19014KT 17/14 A2987 RMK A01 T01730142  RH  082%=      5-min Rain = 0
KPD4 141120Z 20015KT 17/14 A2987 RMK A01 T01730142  RH  082%=      5-min Rain = 0
KPD4 141121Z 19014KT 17/14 A2987 RMK A01 T01730142  RH  082%=      5-min Rain = 0
KPD4 141122Z 19015KT 17/14 A2987 RMK A01 T01740142  RH  082%=      5-min Rain = 0
KPD4 141123Z 20015KT 17/14 A2987 RMK A01 T01740143  RH  082%=      5-min Rain = 0
KPD4 141124Z 19019KT 17/14 A2987 RMK A01 T01730142  RH  082%=      5-min Rain = 0
KPD4 141125Z 19016KT 17/14 A2987 RMK A01 T01740142  RH  081%=      5-min Rain = 0
KPD4 141126Z 20015KT 17/14 A2987 RMK A01 T01740142  RH  081%=      5-min Rain = 0
KPD4 141127Z 19015KT 17/14 A2987 RMK A01 T01740142  RH  081%=      5-min Rain = 0
KPD4 141128Z 19013KT 17/14 A2987 RMK A01 T01740143  RH  082%=      5-min Rain = 0
KPD4 141129Z 19013KT 17/14 A2987 RMK A01 T01730142  RH  082%=      5-min Rain = 0
KPD4 141130Z 19015KT 17/14 A2987 RMK A01 T01740142  RH  082%=      5-min Rain = 0
KPD4 141131Z 19015KT 17/14 A2987 RMK A01 T01730142  RH  082%=      5-min Rain = 0
KPD4 141132Z 19016KT 17/14 A2987 RMK A01 T01730142  RH  082%=      5-min Rain = 0
KPD4 141133Z 19013KT 17/14 A2987 RMK A01 T01740142  RH  082%=      5-min Rain = 0
KPD4 141134Z 19013KT 17/14 A2987 RMK A01 T01730142  RH  082%=      5-min Rain = 0
KPD4 141135Z 19015KT 17/14 A2987 RMK A01 T01730142  RH  082%=      5-min Rain = 0
KPD4 141136Z 19013G18KT 17/14 A2987 RMK A01 T01730142  RH  082%=      5-min Rain = 0
KPD4 141137Z 19014G19KT 17/14 A2987 RMK A01 T01720141  RH  082%=      5-min Rain = 0
KPD4 141138Z 19013KT 17/14 A2987 RMK A01 T01730142  RH  082%=      5-min Rain = 0
KPD4 141139Z 19014KT 17/14 A2987 RMK A01 T01730142  RH  082%=      5-min Rain = 0
KPD4 141140Z 18014KT 17/14 A2987 RMK A01 T01720142  RH  082%=      5-min Rain = 0
KPD4 141141Z 18015KT 17/14 A2987 RMK A01 T01720142  RH  083%=      5-min Rain = 0
KPD4 141142Z 19015KT 17/14 A2987 RMK A01 T01720142  RH  083%=      5-min Rain = 0
KPD4 141143Z 18018KT 17/14 A2987 RMK A01 T01720142  RH  083%=      5-min Rain = 0
KPD4 141144Z 18017KT 17/14 A2987 RMK A01 T01710142  RH  083%=      5-min Rain = 0
KPD4 141145Z 18014KT 17/14 A2987 RMK A01 T01720142  RH  082%=      5-min Rain = 0
KPD4 141146Z 18015KT 17/14 A2987 RMK A01 T01720142  RH  082%=      5-min Rain = 0
KPD4 141147Z 18014KT 17/14 A2987 RMK A01 T01720142  RH  083%=      5-min Rain = 0
KPD4 141148Z 18016KT 17/14 A2987 RMK A01 T01720142  RH  083%=      5-min Rain = 0
KPD4 141149Z 18013KT 17/14 A2987 RMK A01 T01720142  RH  083%=      5-min Rain = 0
KPD4 141150Z 18013G18KT 17/14 A2987 RMK A01 T01710142  RH  083%=      5-min Rain = 0
KPD4 141151Z 18016KT 17/14 A2987 RMK A01 T01710142  RH  083%=      5-min Rain = 0
KPD4 141152Z 19016KT 17/14 A2987 RMK A01 T01720142  RH  082%=      5-min Rain = 0
KPD4 141153Z 18015G20KT 17/14 A2987 RMK A01 T01720142  RH  082%=      5-min Rain = 0
KPD4 141154Z 19015KT 17/14 A2987 RMK A01 T01720142  RH  082%=      5-min Rain = 0
KPD4 141155Z 19014KT 17/14 A2987 RMK A01 T01720142  RH  082%=      5-min Rain = 0
KPD4 141156Z 18013KT 17/14 A2987 RMK A01 T01720142  RH  083%=      5-min Rain = 0
KPD4 141157Z 18015KT 17/14 A2987 RMK A01 T01720142  RH  083%=      5-min Rain = 0
KPD4 141158Z 18012KT 17/14 A2987 RMK A01 T01720142  RH  082%=      5-min Rain = 0
KPD4 141159Z 18012G17KT 17/14 A2987 RMK A01 T01720142  RH  082%=      5-min Rain = 0
KPD4 141200Z 18011KT 17/14 A2987 RMK A01 T01720142  RH  082%=      5-min Rain = 0
KPD4 141201Z 18011KT 17/14 A2987 RMK A01 T01720142  RH  083%=      5-min Rain = 0
KPD4 141202Z 18009KT 17/14 A2988 RMK A01 T01720142  RH  083%=      5-min Rain = 0
KPD4 141203Z 18011KT 17/14 A2988 RMK A01 T01720142  RH  083%=      5-min Rain = 0
KPD4 141204Z 18011KT 17/14 A2988 RMK A01 T01720142  RH  082%=      5-min Rain = 0
KPD4 141205Z 18010KT 17/14 A2988 RMK A01 T01730142  RH  082%=      5-min Rain = 0
KPD4 141206Z 18010KT 17/14 A2988 RMK A01 T01720142  RH  082%=      5-min Rain = 0
KPD4 141207Z 18009KT 17/14 A2988 RMK A01 T01730142  RH  082%=      5-min Rain = 0
KPD4 141208Z 18009KT 17/14 A2989 RMK A01 T01730142  RH  082%=      5-min Rain = 0
KPD4 141209Z 18008KT 17/14 A2989 RMK A01 T01730142  RH  082%=      5-min Rain = 0
KPD4 141210Z 18009KT 17/14 A2989 RMK A01 T01730142  RH  082%=      5-min Rain = 0
KPD4 141211Z 18007KT 17/14 A2989 RMK A01 T01740142  RH  082%=      5-min Rain = 0
KPD4 141212Z 18005KT 17/14 A2989 RMK A01 T01740142  RH  082%=      5-min Rain = 0
KPD4 141213Z 17005KT 17/14 A299 RMK A01 T01740142  RH  082%=      5-min Rain = 0
KPD4 141214Z 18003KT 18/14 A299 RMK A01 T01750142  RH  081%=      5-min Rain = 0
KPD4 141215Z 19002KT 18/14 A2991 RMK A01 T01750142  RH  081%=      5-min Rain = 0
KPD4 141216Z 18003KT 18/14 A2991 RMK A01 T01760143  RH  081%=      5-min Rain = 0
KPD4 141217Z 17002KT 18/14 A2991 RMK A01 T01770141  RH  080%=      5-min Rain = 0
KPD4 141218Z 16000KT 18/14 A2991 RMK A01 T01780142  RH  079%=      5-min Rain = 0
KPD4 141219Z 00000KT 18/14 A2991 RMK A01 T01790142  RH  079%=      5-min Rain = 0
KPD4 141220Z 02001KT 18/14 A2991 RMK A01 T01800142  RH  079%=      5-min Rain = 0
KPD4 141221Z 04002KT 18/14 A2992 RMK A01 T01800143  RH  079%=      5-min Rain = 0
KPD4 141222Z 04002KT 18/14 A2992 RMK A01 T01800143  RH  079%=      5-min Rain = 0
KPD4 141223Z 05002KT 18/14 A2992 RMK A01 T01800141  RH  078%=      5-min Rain = 0
KPD4 141224Z 06001KT 18/14 A2992 RMK A01 T01810141  RH  078%=      5-min Rain = 0
KPD4 141225Z 12002KT 18/14 A2991 RMK A01 T01810141  RH  077%=      5-min Rain = 0
KPD4 141226Z 20003KT 18/14 A2991 RMK A01 T01810141  RH  077%=      5-min Rain = 0
KPD4 141227Z 19002KT 18/14 A2991 RMK A01 T01820143  RH  078%=      5-min Rain = 0
KPD4 141228Z 17004KT 18/14 A2991 RMK A01 T01810142  RH  078%=      5-min Rain = 0
KPD4 141229Z 17005KT 18/14 A2991 RMK A01 T01810141  RH  078%=      5-min Rain = 0
KPD4 141230Z 19005KT 18/14 A2991 RMK A01 T01810142  RH  078%=      5-min Rain = 0
KPD4 141231Z 17006KT 18/14 A2991 RMK A01 T01810144  RH  079%=      5-min Rain = 0
KPD4 141232Z 17005KT 18/14 A2991 RMK A01 T01800144  RH  079%=      5-min Rain = 0
KPD4 141233Z 18007KT 18/14 A2991 RMK A01 T01800144  RH  079%=      5-min Rain = 0
KPD4 141234Z 18008KT 18/14 A2991 RMK A01 T01810144  RH  079%=      5-min Rain = 0
KPD4 141235Z 18008KT 18/14 A2991 RMK A01 T01800143  RH  079%=      5-min Rain = 0
KPD4 141236Z 18007KT 18/14 A2991 RMK A01 T01800143  RH  079%=      5-min Rain = 0
KPD4 141237Z 17006KT 18/14 A2991 RMK A01 T01800144  RH  079%=      5-min Rain = 0
KPD4 141238Z 17007KT 18/15 A2991 RMK A01 T01800145  RH  080%=      5-min Rain = 0
KPD4 141239Z 16006KT 18/14 A2991 RMK A01 T01800144  RH  080%=      5-min Rain = 0
KPD4 141240Z 17008KT 18/14 A2991 RMK A01 T01800144  RH  079%=      5-min Rain = 0
KPD4 141241Z 17006KT 18/14 A2991 RMK A01 T01810144  RH  079%=      5-min Rain = 0
KPD4 141242Z 17007KT 18/15 A2991 RMK A01 T01810145  RH  079%=      5-min Rain = 0
KPD4 141243Z 16007KT 18/15 A2991 RMK A01 T01820146  RH  079%=      5-min Rain = 0
KPD4 141244Z 16007KT 18/14 A2991 RMK A01 T01820144  RH  078%=      5-min Rain = 0
KPD4 141245Z 16007KT 18/15 A2992 RMK A01 T01830146  RH  079%=      5-min Rain = 0
KPD4 141246Z 16006KT 18/15 A2992 RMK A01 T01830146  RH  079%=      5-min Rain = 0
KPD4 141247Z 15007KT 18/15 A2992 RMK A01 T01840147  RH  079%=      5-min Rain = 0
KPD4 141248Z 15007KT 19/15 A2992 RMK A01 T01850146  RH  078%=      5-min Rain = 0
KPD4 141249Z 15008KT 19/15 A2992 RMK A01 T01850145  RH  077%=      5-min Rain = 0
KPD4 141250Z 17009KT 19/14 A2992 RMK A01 T01860144  RH  077%=      5-min Rain = 0
KPD4 141251Z 17007KT 19/15 A2992 RMK A01 T01860145  RH  077%=      5-min Rain = 0
KPD4 141252Z 16006KT 19/15 A2992 RMK A01 T01860145  RH  077%=      5-min Rain = 0
KPD4 141253Z 16006KT 19/15 A2992 RMK A01 T01860145  RH  077%=      5-min Rain = 0
KPD4 141254Z 14004KT 19/15 A2992 RMK A01 T01870147  RH  078%=      5-min Rain = 0
KPD4 141255Z 14006KT 19/15 A2992 RMK A01 T01880148  RH  078%=      5-min Rain = 0
KPD4 141256Z 14006KT 19/15 A2992 RMK A01 T01880147  RH  077%=      5-min Rain = 0
KPD4 141257Z 15007KT 19/15 A2992 RMK A01 T01880146  RH  076%=      5-min Rain = 0
KPD4 141258Z 16007KT 19/14 A2992 RMK A01 T01880144  RH  075%=      5-min Rain = 0
KPD4 141259Z 16009KT 19/15 A2992 RMK A01 T01890146  RH  076%=      5-min Rain = 0
KPD4 141300Z 17009KT 19/15 A2991 RMK A01 T01890145  RH  076%=      5-min Rain = 0
KPD4 141301Z 17009KT 19/15 A2991 RMK A01 T01890148  RH  077%=      5-min Rain = 0
KPD4 141302Z 17010KT 19/15 A2991 RMK A01 T01890147  RH  077%=      5-min Rain = 0
KPD4 141303Z 18012KT 19/15 A299 RMK A01 T01890150  RH  078%=      5-min Rain = 0
KPD4 141304Z 17014KT 19/15 A299 RMK A01 T01890147  RH  076%=      5-min Rain = 0
KPD4 141305Z 17014KT 19/15 A299 RMK A01 T01890147  RH  077%=      5-min Rain = 0
KPD4 141306Z 17014KT 19/15 A2989 RMK A01 T01890148  RH  077%=      5-min Rain = 0
KPD4 141307Z 17015KT 19/15 A2989 RMK A01 T01890146  RH  076%=      5-min Rain = 0
KPD4 141308Z 17015KT 19/15 A2989 RMK A01 T01890148  RH  077%=      5-min Rain = 0
KPD4 141309Z 18016KT 19/15 A2989 RMK A01 T01890147  RH  076%=      5-min Rain = 0
KPD4 141310Z 17015KT 19/15 A2989 RMK A01 T01890147  RH  077%=      5-min Rain = 0
KPD4 141311Z 18012KT 19/15 A2989 RMK A01 T01890148  RH  077%=      5-min Rain = 0
KPD4 141312Z 18014KT 19/15 A2989 RMK A01 T01890148  RH  077%=      5-min Rain = 0
KPD4 141313Z 18012KT 19/15 A2989 RMK A01 T01890148  RH  077%=      5-min Rain = 0
KPD4 141314Z 18013KT 19/15 A2989 RMK A01 T01890147  RH  076%=      5-min Rain = 0
KPD4 141315Z 18012KT 19/15 A2989 RMK A01 T01890148  RH  077%=      5-min Rain = 0
KPD4 141316Z 17012KT 19/15 A2989 RMK A01 T01890147  RH  077%=      5-min Rain = 0
KPD4 141317Z 18011KT 19/15 A2989 RMK A01 T01880147  RH  077%=      5-min Rain = 0
KPD4 141318Z 18011G16KT 19/15 A299 RMK A01 T01880148  RH  078%=      5-min Rain = 0
KPD4 141319Z 17014KT 19/15 A299 RMK A01 T01870146  RH  077%=      5-min Rain = 0
KPD4 141320Z 18013KT 19/15 A299 RMK A01 T01870146  RH  077%=      5-min Rain = 0
KPD4 141321Z 17012KT 19/15 A299 RMK A01 T01870146  RH  077%=      5-min Rain = 0
KPD4 141322Z 18010KT 19/15 A299 RMK A01 T01870146  RH  077%=      5-min Rain = 0
KPD4 141323Z 17007KT 19/15 A299 RMK A01 T01880148  RH  077%=      5-min Rain = 0
KPD4 141324Z 18008KT 19/15 A299 RMK A01 T01900150  RH  078%=      5-min Rain = 0
KPD4 141325Z 19007KT 19/15 A299 RMK A01 T01900149  RH  077%=      5-min Rain = 0
KPD4 141326Z 19010KT 19/15 A299 RMK A01 T01900149  RH  077%=      5-min Rain = 0
KPD4 141327Z 18010KT 19/15 A299 RMK A01 T01900148  RH  077%=      5-min Rain = 0
KPD4 141328Z 18010KT 19/15 A299 RMK A01 T01900149  RH  077%=      5-min Rain = 0
KPD4 141329Z 18011KT 19/15 A299 RMK A01 T01900148  RH  077%=      5-min Rain = 0
KPD4 141330Z 19012KT 19/15 A299 RMK A01 T01910150  RH  077%=      5-min Rain = 0
KPD4 141331Z 19012KT 19/15 A2989 RMK A01 T01920149  RH  076%=      5-min Rain = 0
KPD4 141332Z 19013KT 19/15 A2989 RMK A01 T01920149  RH  076%=      5-min Rain = 0
KPD4 141333Z 19014KT 19/15 A2989 RMK A01 T01930150  RH  076%=      5-min Rain = 0
KPD4 141334Z 18011KT 19/15 A2989 RMK A01 T01930150  RH  076%=      5-min Rain = 0
KPD4 141335Z 18013KT 19/15 A2989 RMK A01 T01940151  RH  076%=      5-min Rain = 0
KPD4 141336Z 18015KT 20/15 A2989 RMK A01 T01950150  RH  075%=      5-min Rain = 0
KPD4 141337Z 18012KT 19/15 A2989 RMK A01 T01940150  RH  075%=      5-min Rain = 0
KPD4 141338Z 18011KT 19/15 A2989 RMK A01 T01940152  RH  076%=      5-min Rain = 0
KPD4 141339Z 18009KT 20/15 A2989 RMK A01 T01950152  RH  077%=      5-min Rain = 0
KPD4 141340Z 18009KT 20/15 A2989 RMK A01 T01950152  RH  076%=      5-min Rain = 0
KPD4 141341Z 19011KT 19/15 A299 RMK A01 T01940152  RH  076%=      5-min Rain = 0
KPD4 141342Z 19010KT 19/15 A299 RMK A01 T01940151  RH  076%=      5-min Rain = 0
KPD4 141343Z 19008KT 19/15 A299 RMK A01 T01930151  RH  076%=      5-min Rain = 0
KPD4 141344Z 18009KT 19/15 A299 RMK A01 T01940153  RH  077%=      5-min Rain = 0
KPD4 141345Z 20010KT 19/15 A299 RMK A01 T01930150  RH  076%=      5-min Rain = 0
KPD4 141346Z 19011KT 19/15 A299 RMK A01 T01930150  RH  076%=      5-min Rain = 0
KPD4 141347Z 19013KT 19/15 A299 RMK A01 T01920149  RH  076%=      5-min Rain = 0
KPD4 141348Z 19010KT 19/15 A2989 RMK A01 T01910149  RH  077%=      5-min Rain = 0
KPD4 141349Z 19012KT 19/15 A2989 RMK A01 T01910150  RH  077%=      5-min Rain = 0
KPD4 141350Z 19013KT 19/15 A2989 RMK A01 T01910149  RH  077%=      5-min Rain = 0
KPD4 141351Z 19011KT 19/15 A2989 RMK A01 T01920150  RH  077%=      5-min Rain = 0
KPD4 141352Z 19012KT 19/15 A2989 RMK A01 T01910149  RH  077%=      5-min Rain = 0
KPD4 141353Z 19012KT 19/15 A2989 RMK A01 T01920149  RH  076%=      5-min Rain = 0
KPD4 141354Z 19011KT 19/15 A2989 RMK A01 T01920149  RH  076%=      5-min Rain = 0
KPD4 141355Z 18013KT 19/15 A2988 RMK A01 T01930151  RH  077%=      5-min Rain = 0
KPD4 141356Z 19010KT 19/15 A2988 RMK A01 T01940152  RH  076%=      5-min Rain = 0
KPD4 141357Z 20011KT 20/16 A2988 RMK A01 T01950155  RH  077%=      5-min Rain = 0
KPD4 141358Z 19011KT 20/15 A2988 RMK A01 T01970153  RH  076%=      5-min Rain = 0
KPD4 141359Z 19014KT 20/15 A2988 RMK A01 T01970153  RH  076%=      5-min Rain = 0
KPD4 141400Z 19015KT 20/15 A2988 RMK A01 T01980152  RH  075%=      5-min Rain = 0
KPD4 141401Z 19014KT 20/15 A2988 RMK A01 T01970151  RH  075%=      5-min Rain = 0
KPD4 141402Z 19013KT 20/15 A2988 RMK A01 T01960152  RH  075%=      5-min Rain = 0
KPD4 141403Z 19015KT 20/15 A2988 RMK A01 T01970152  RH  075%=      5-min Rain = 0
KPD4 141404Z 19014KT 20/15 A2988 RMK A01 T01970151  RH  074%=      5-min Rain = 0
KPD4 141405Z 19013KT 20/15 A2988 RMK A01 T01980152  RH  075%=      5-min Rain = 0
KPD4 141406Z 19011KT 20/15 A2988 RMK A01 T01990152  RH  074%=      5-min Rain = 0
KPD4 141407Z 18013KT 20/15 A2988 RMK A01 T01990152  RH  074%=      5-min Rain = 0
KPD4 141408Z 18013KT 20/15 A2989 RMK A01 T02000153  RH  074%=      5-min Rain = 0
KPD4 141409Z 18012KT 20/15 A2989 RMK A01 T02000152  RH  074%=      5-min Rain = 0
KPD4 141410Z 18014KT 20/15 A2989 RMK A01 T02010153  RH  074%=      5-min Rain = 0
KPD4 141411Z 17013KT 20/15 A2989 RMK A01 T02010152  RH  073%=      5-min Rain = 0
KPD4 141412Z 19011KT 20/15 A2989 RMK A01 T02000152  RH  074%=      5-min Rain = 0
KPD4 141413Z 19012KT 20/15 A2989 RMK A01 T02000153  RH  074%=      5-min Rain = 0
KPD4 141414Z 19012KT 20/15 A2989 RMK A01 T02010154  RH  074%=      5-min Rain = 0
KPD4 141415Z 19012KT 20/16 A2989 RMK A01 T02020155  RH  074%=      5-min Rain = 0
KPD4 141416Z 19011KT 20/16 A2989 RMK A01 T02030155  RH  074%=      5-min Rain = 0
KPD4 141417Z 19015KT 20/16 A2989 RMK A01 T02030155  RH  074%=      5-min Rain = 0
KPD4 141418Z 19015KT 20/15 A2989 RMK A01 T02040153  RH  072%=      5-min Rain = 0
KPD4 141419Z 19013KT 20/15 A2989 RMK A01 T02040154  RH  073%=      5-min Rain = 0
KPD4 141420Z 19012KT 21/16 A2989 RMK A01 T02050157  RH  074%=      5-min Rain = 0
KPD4 141421Z 19012KT 21/15 A2989 RMK A01 T02060154  RH  072%=      5-min Rain = 0
KPD4 141422Z 19013KT 21/16 A2989 RMK A01 T02060156  RH  073%=      5-min Rain = 0
KPD4 141423Z 18012KT 21/16 A2989 RMK A01 T02060157  RH  073%=      5-min Rain = 0
KPD4 141424Z 19013KT 21/16 A2989 RMK A01 T02070157  RH  073%=      5-min Rain = 0
KPD4 141425Z 19014KT 21/16 A2988 RMK A01 T02070156  RH  072%=      5-min Rain = 0
KPD4 141426Z 18013KT 21/16 A2989 RMK A01 T02070156  RH  072%=      5-min Rain = 0
KPD4 141427Z 19012KT 21/16 A2989 RMK A01 T02080157  RH  073%=      5-min Rain = 0
KPD4 141428Z 18013KT 21/16 A2989 RMK A01 T02080156  RH  072%=      5-min Rain = 0
KPD4 141429Z 18014KT 21/16 A2988 RMK A01 T02080156  RH  072%=      5-min Rain = 0
KPD4 141430Z 19012KT 21/16 A2988 RMK A01 T02080157  RH  073%=      5-min Rain = 0
KPD4 141431Z 19014KT 21/16 A2988 RMK A01 T02080158  RH  073%=      5-min Rain = 0
KPD4 141432Z 19013KT 21/16 A2989 RMK A01 T02090158  RH  073%=      5-min Rain = 0
KPD4 141433Z 19012KT 21/16 A2989 RMK A01 T02090156  RH  072%=      5-min Rain = 0
KPD4 141434Z 18010KT 21/16 A2989 RMK A01 T02090160  RH  073%=      5-min Rain = 0
KPD4 141435Z 19011KT 21/16 A2989 RMK A01 T02100160  RH  073%=      5-min Rain = 0
KPD4 141436Z 18011KT 21/16 A2989 RMK A01 T02110158  RH  072%=      5-min Rain = 0
KPD4 141437Z 19011KT 21/16 A2989 RMK A01 T02120159  RH  072%=      5-min Rain = 0
KPD4 141438Z 17011KT 21/16 A2989 RMK A01 T02120157  RH  071%=      5-min Rain = 0
KPD4 141439Z 18014KT 21/16 A2989 RMK A01 T02120159  RH  072%=      5-min Rain = 0
KPD4 141440Z 17014KT 21/16 A2989 RMK A01 T02120158  RH  071%=      5-min Rain = 0
KPD4 141441Z 17013KT 21/16 A2989 RMK A01 T02130159  RH  072%=      5-min Rain = 0
KPD4 141442Z 18013KT 21/16 A2989 RMK A01 T02130160  RH  072%=      5-min Rain = 0
KPD4 141443Z 18013KT 21/16 A2988 RMK A01 T02130158  RH  071%=      5-min Rain = 0
KPD4 141444Z 17011KT 21/16 A2988 RMK A01 T02120160  RH  072%=      5-min Rain = 0
KPD4 141445Z 17013KT 21/16 A2988 RMK A01 T02120162  RH  073%=      5-min Rain = 0
KPD4 141446Z 17013KT 21/16 A2988 RMK A01 T02130161  RH  072%=      5-min Rain = 0
KPD4 141447Z 18010KT 21/16 A2988 RMK A01 T02130163  RH  073%=      5-min Rain = 0
KPD4 141448Z 18013KT 21/16 A2988 RMK A01 T02130162  RH  073%=      5-min Rain = 0
KPD4 141449Z 17012KT 21/16 A2988 RMK A01 T02140161  RH  072%=      5-min Rain = 0
KPD4 141450Z 18012KT 21/16 A2988 RMK A01 T02140163  RH  072%=      5-min Rain = 0
KPD4 141451Z 19013KT 22/16 A2988 RMK A01 T02150162  RH  072%=      5-min Rain = 0
KPD4 141452Z 17013KT 22/16 A2988 RMK A01 T02150162  RH  072%=      5-min Rain = 0
KPD4 141453Z 17013KT 22/16 A2988 RMK A01 T02150160  RH  071%=      5-min Rain = 0
KPD4 141454Z 17013KT 21/16 A2988 RMK A01 T02140162  RH  073%=      5-min Rain = 0
KPD4 141455Z 17015KT 21/16 A2988 RMK A01 T02140160  RH  071%=      5-min Rain = 0
KPD4 141456Z 18014KT 21/16 A2988 RMK A01 T02140161  RH  072%=      5-min Rain = 0
KPD4 141457Z 18014KT 22/16 A2988 RMK A01 T02150162  RH  072%=      5-min Rain = 0
KPD4 141458Z 18012KT 22/16 A2988 RMK A01 T02150162  RH  071%=      5-min Rain = 0
KPD4 141459Z 18016KT 22/16 A2987 RMK A01 T02160162  RH  071%=      5-min Rain = 0
KPD4 141500Z 17014KT 22/16 A2987 RMK A01 T02170162  RH  071%=      5-min Rain = 0
KPD4 141501Z 19013KT 22/16 A2988 RMK A01 T02180163  RH  071%=      5-min Rain = 0
KPD4 141502Z 18009KT 22/17 A2988 RMK A01 T02200166  RH  072%=      5-min Rain = 0
KPD4 141503Z 18011KT 22/17 A2988 RMK A01 T02220168  RH  071%=      5-min Rain = 0
KPD4 141504Z 17011KT 22/17 A2988 RMK A01 T02240169  RH  071%=      5-min Rain = 0
KPD4 141505Z 18013KT 23/17 A2988 RMK A01 T02260167  RH  069%=      5-min Rain = 0
KPD4 141506Z 18011KT 23/17 A2988 RMK A01 T02260166  RH  069%=      5-min Rain = 0
KPD4 141507Z 18014KT 23/17 A2988 RMK A01 T02260166  RH  069%=      5-min Rain = 0
KPD4 141508Z 18011KT 23/17 A2988 RMK A01 T02260165  RH  069%=      5-min Rain = 0
KPD4 141509Z 19011KT 23/17 A2988 RMK A01 T02250167  RH  070%=      5-min Rain = 0
KPD4 141510Z 19011KT 23/17 A2988 RMK A01 T02260168  RH  070%=      5-min Rain = 0
KPD4 141511Z 18013KT 23/17 A2987 RMK A01 T02270167  RH  069%=      5-min Rain = 0
KPD4 141512Z 17013KT 23/17 A2987 RMK A01 T02270167  RH  069%=      5-min Rain = 0
KPD4 141513Z 18014KT 23/17 A2987 RMK A01 T02260167  RH  069%=      5-min Rain = 0
KPD4 141514Z 18015KT 22/16 A2987 RMK A01 T02240163  RH  068%=      5-min Rain = 0
KPD4 141515Z 18013KT 22/17 A2987 RMK A01 T02230165  RH  069%=      5-min Rain = 0
KPD4 141516Z 18015KT 22/16 A2987 RMK A01 T02220162  RH  069%=      5-min Rain = 0
KPD4 141517Z 19016KT 22/16 A2987 RMK A01 T02210162  RH  069%=      5-min Rain = 0
KPD4 141518Z 19013KT 22/16 A2987 RMK A01 T02210162  RH  069%=      5-min Rain = 0
KPD4 141519Z 19015KT 22/16 A2987 RMK A01 T02210162  RH  069%=      5-min Rain = 0
KPD4 141520Z 19015KT 22/16 A2987 RMK A01 T02220161  RH  068%=      5-min Rain = 0
KPD4 141521Z 19014KT 22/16 A2987 RMK A01 T02230162  RH  069%=      5-min Rain = 0
KPD4 141522Z 19014KT 22/16 A2987 RMK A01 T02240164  RH  069%=      5-min Rain = 0
KPD4 141523Z 18014KT 23/17 A2987 RMK A01 T02260166  RH  069%=      5-min Rain = 0
KPD4 141524Z 18016KT 23/17 A2986 RMK A01 T02280165  RH  068%=      5-min Rain = 0
KPD4 141525Z 19017KT 23/16 A2986 RMK A01 T02280164  RH  067%=      5-min Rain = 0
KPD4 141526Z 19015KT 23/17 A2986 RMK A01 T02280166  RH  068%=      5-min Rain = 0
KPD4 141527Z 19016KT 23/17 A2986 RMK A01 T02290165  RH  067%=      5-min Rain = 0
KPD4 141528Z 18017KT 23/16 A2986 RMK A01 T02280164  RH  067%=      5-min Rain = 0
KPD4 141529Z 19015KT 23/17 A2986 RMK A01 T02280165  RH  068%=      5-min Rain = 0
KPD4 141530Z 19014KT 23/17 A2986 RMK A01 T02290165  RH  067%=      5-min Rain = 0
KPD4 141531Z 19013KT 23/16 A2986 RMK A01 T02290164  RH  067%=      5-min Rain = 0
KPD4 141532Z 19012KT 23/17 A2986 RMK A01 T02290166  RH  067%=      5-min Rain = 0
KPD4 141533Z 18015KT 23/17 A2986 RMK A01 T02310167  RH  067%=      5-min Rain = 0
KPD4 141534Z 19015KT 23/17 A2986 RMK A01 T02310165  RH  066%=      5-min Rain = 0
KPD4 141535Z 19014KT 23/17 A2986 RMK A01 T02300166  RH  067%=      5-min Rain = 0
KPD4 141536Z 18016KT 23/17 A2986 RMK A01 T02300166  RH  067%=      5-min Rain = 0
KPD4 141537Z 18015KT 23/17 A2986 RMK A01 T02300165  RH  067%=      5-min Rain = 0
KPD4 141538Z 17015KT 23/17 A2986 RMK A01 T02300167  RH  067%=      5-min Rain = 0
KPD4 141539Z 18014KT 23/17 A2986 RMK A01 T02320168  RH  067%=      5-min Rain = 0
KPD4 141540Z 19014KT 23/17 A2986 RMK A01 T02320166  RH  066%=      5-min Rain = 0
KPD4 141541Z 19016KT 23/17 A2986 RMK A01 T02320168  RH  067%=      5-min Rain = 0
KPD4 141542Z 19016KT 23/17 A2986 RMK A01 T02320165  RH  066%=      5-min Rain = 0
KPD4 141543Z 19014KT 23/17 A2986 RMK A01 T02320166  RH  066%=      5-min Rain = 0
KPD4 141544Z 19011KT 23/17 A2986 RMK A01 T02310167  RH  067%=      5-min Rain = 0
KPD4 141545Z 18014KT 23/17 A2985 RMK A01 T02330171  RH  068%=      5-min Rain = 0
KPD4 141546Z 19012KT 24/17 A2985 RMK A01 T02350171  RH  067%=      5-min Rain = 0
KPD4 141547Z 19011KT 24/17 A2985 RMK A01 T02360173  RH  068%=      5-min Rain = 0
KPD4 141548Z 18014KT 24/17 A2985 RMK A01 T02380172  RH  067%=      5-min Rain = 0
KPD4 141549Z 19012KT 24/17 A2985 RMK A01 T02380171  RH  066%=      5-min Rain = 0
KPD4 141550Z 19011KT 24/17 A2985 RMK A01 T02380169  RH  065%=      5-min Rain = 0
KPD4 141551Z 19012KT 24/17 A2985 RMK A01 T02370170  RH  066%=      5-min Rain = 0
KPD4 141552Z 18013KT 24/17 A2985 RMK A01 T02370172  RH  067%=      5-min Rain = 0
KPD4 141553Z 19014KT 24/17 A2985 RMK A01 T02380169  RH  065%=      5-min Rain = 0
KPD4 141554Z 19014KT 24/17 A2985 RMK A01 T02370170  RH  066%=      5-min Rain = 0
KPD4 141555Z 18013KT 24/17 A2985 RMK A01 T02380172  RH  067%=      5-min Rain = 0
KPD4 141556Z 18014KT 24/17 A2985 RMK A01 T02390172  RH  066%=      5-min Rain = 0
KPD4 141557Z 19012KT 24/17 A2985 RMK A01 T02400173  RH  066%=      5-min Rain = 0
KPD4 141558Z 18015KT 24/17 A2985 RMK A01 T02400174  RH  066%=      5-min Rain = 0
KPD4 141559Z 19012KT 24/17 A2985 RMK A01 T02410174  RH  066%=      5-min Rain = 0
KPD4 141600Z 17013KT 24/17 A2985 RMK A01 T02420174  RH  066%=      5-min Rain = 0
KPD4 141601Z 18013KT 24/17 A2985 RMK A01 T02420173  RH  066%=      5-min Rain = 0
KPD4 141602Z 19013KT 24/17 A2985 RMK A01 T02410172  RH  065%=      5-min Rain = 0
KPD4 141603Z 19012KT 24/18 A2985 RMK A01 T02400175  RH  067%=      5-min Rain = 0
KPD4 141604Z 19011KT 24/18 A2985 RMK A01 T02410176  RH  067%=      5-min Rain = 0
KPD4 141605Z 19012KT 24/18 A2985 RMK A01 T02430176  RH  066%=      5-min Rain = 0
KPD4 141606Z 19013KT 25/18 A2985 RMK A01 T02450176  RH  066%=      5-min Rain = 0
KPD4 141607Z 20012KT 25/18 A2985 RMK A01 T02450178  RH  066%=      5-min Rain = 0
KPD4 141608Z 20013KT 25/17 A2985 RMK A01 T02460174  RH  064%=      5-min Rain = 0
KPD4 141609Z 19012KT 24/17 A2985 RMK A01 T02440172  RH  064%=      5-min Rain = 0
KPD4 141610Z 19013KT 24/17 A2985 RMK A01 T02430172  RH  065%=      5-min Rain = 0
KPD4 141611Z 18014KT 24/17 A2985 RMK A01 T02420170  RH  064%=      5-min Rain = 0
KPD4 141612Z 20014KT 24/17 A2985 RMK A01 T02420171  RH  065%=      5-min Rain = 0
KPD4 141613Z 21010KT 24/18 A2985 RMK A01 T02420175  RH  066%=      5-min Rain = 0
KPD4 141614Z 21010KT 25/18 A2985 RMK A01 T02450178  RH  066%=      5-min Rain = 0
KPD4 141615Z 20009KT 25/18 A2985 RMK A01 T02460175  RH  065%=      5-min Rain = 0
KPD4 141616Z 19011KT 25/18 A2985 RMK A01 T02460177  RH  065%=      5-min Rain = 0
KPD4 141617Z 20011KT 25/18 A2985 RMK A01 T02460178  RH  066%=      5-min Rain = 0
KPD4 141618Z 20010KT 25/18 A2985 RMK A01 T02460176  RH  065%=      5-min Rain = 0
KPD4 141619Z 20011KT 25/18 A2985 RMK A01 T02470175  RH  064%=      5-min Rain = 0
KPD4 141620Z 19011KT 25/17 A2985 RMK A01 T02470174  RH  064%=      5-min Rain = 0
KPD4 141621Z 19010KT 25/18 A2984 RMK A01 T02460178  RH  066%=      5-min Rain = 0
KPD4 141622Z 19012G17KT 25/18 A2984 RMK A01 T02480178  RH  065%=      5-min Rain = 0
KPD4 141623Z 19016KT 25/18 A2984 RMK A01 T02480176  RH  064%=      5-min Rain = 0
KPD4 141624Z 19014KT 25/17 A2984 RMK A01 T02470174  RH  064%=      5-min Rain = 0
KPD4 141625Z 18011KT 25/18 A2984 RMK A01 T02460175  RH  064%=      5-min Rain = 0
KPD4 141626Z 19012KT 25/17 A2984 RMK A01 T02460174  RH  064%=      5-min Rain = 0
KPD4 141627Z 19012KT 25/17 A2984 RMK A01 T02460174  RH  064%=      5-min Rain = 0
KPD4 141628Z 20012KT 25/18 A2984 RMK A01 T02460177  RH  065%=      5-min Rain = 0
KPD4 141629Z 20013KT 25/18 A2984 RMK A01 T02480178  RH  065%=      5-min Rain = 0
KPD4 141630Z 21012KT 25/18 A2984 RMK A01 T02500176  RH  064%=      5-min Rain = 0
KPD4 141631Z 20010KT 25/18 A2984 RMK A01 T02490176  RH  064%=      5-min Rain = 0
KPD4 141632Z 20011KT 25/18 A2984 RMK A01 T02500177  RH  064%=      5-min Rain = 0
KPD4 141633Z 20010KT 25/18 A2984 RMK A01 T02520180  RH  065%=      5-min Rain = 0
KPD4 141634Z 19011KT 26/18 A2984 RMK A01 T02550182  RH  064%=      5-min Rain = 0
KPD4 141635Z 19012KT 26/18 A2984 RMK A01 T02560183  RH  064%=      5-min Rain = 0
KPD4 141636Z 18012KT 26/18 A2984 RMK A01 T02580179  RH  062%=      5-min Rain = 0
KPD4 141637Z 18013KT 26/18 A2984 RMK A01 T02580180  RH  062%=      5-min Rain = 0
KPD4 141638Z 19012KT 26/18 A2984 RMK A01 T02580180  RH  062%=      5-min Rain = 0
KPD4 141639Z 18015KT 26/18 A2984 RMK A01 T02570179  RH  062%=      5-min Rain = 0
KPD4 141640Z 19011KT 25/18 A2984 RMK A01 T02540175  RH  061%=      5-min Rain = 0
KPD4 141641Z 20011KT 25/18 A2984 RMK A01 T02520179  RH  064%=      5-min Rain = 0
KPD4 141642Z 20011KT 25/18 A2984 RMK A01 T02520177  RH  063%=      5-min Rain = 0
KPD4 141643Z 20012KT 25/18 A2984 RMK A01 T02510179  RH  064%=      5-min Rain = 0
KPD4 141644Z 19012KT 25/18 A2984 RMK A01 T02520176  RH  063%=      5-min Rain = 0
KPD4 141645Z 19011KT 25/18 A2984 RMK A01 T02530178  RH  063%=      5-min Rain = 0
KPD4 141646Z 20009KT 26/18 A2984 RMK A01 T02560184  RH  065%=      5-min Rain = 0
KPD4 141647Z 20011G17KT 26/18 A2984 RMK A01 T02590182  RH  062%=      5-min Rain = 0
KPD4 141648Z 19014KT 26/18 A2984 RMK A01 T02600179  RH  061%=      5-min Rain = 0
KPD4 141649Z 18014KT 26/18 A2984 RMK A01 T02610178  RH  060%=      5-min Rain = 0
KPD4 141650Z 19013KT 26/18 A2984 RMK A01 T02600179  RH  061%=      5-min Rain = 0
KPD4 141651Z 19014KT 26/18 A2984 RMK A01 T02600179  RH  061%=      5-min Rain = 0
KPD4 141652Z 20016KT 26/18 A2984 RMK A01 T02590175  RH  060%=      5-min Rain = 0
KPD4 141653Z 20013KT 26/17 A2984 RMK A01 T02570174  RH  060%=      5-min Rain = 0
KPD4 141654Z 19012KT 26/18 A2984 RMK A01 T02560177  RH  062%=      5-min Rain = 0
KPD4 141655Z 18010KT 26/18 A2984 RMK A01 T02570179  RH  062%=      5-min Rain = 0
KPD4 141656Z 18010KT 26/18 A2984 RMK A01 T02590178  RH  061%=      5-min Rain = 0
KPD4 141657Z 20011KT 26/18 A2984 RMK A01 T02600178  RH  060%=      5-min Rain = 0
KPD4 141658Z 19014KT 26/18 A2984 RMK A01 T02600178  RH  060%=      5-min Rain = 0
KPD4 141659Z 19012KT 26/18 A2984 RMK A01 T02600178  RH  061%=      5-min Rain = 0
KPD4 141700Z 19013KT 26/18 A2984 RMK A01 T02600179  RH  061%=      5-min Rain = 0
KPD4 141701Z 18012KT 26/18 A2984 RMK A01 T02610180  RH  061%=      5-min Rain = 0
KPD4 141702Z 19012KT 26/18 A2984 RMK A01 T02620181  RH  061%=      5-min Rain = 0
KPD4 141703Z 19012KT 26/18 A2984 RMK A01 T02630180  RH  060%=      5-min Rain = 0
KPD4 141704Z 19012KT 26/18 A2984 RMK A01 T02630179  RH  060%=      5-min Rain = 0
KPD4 141705Z 20011KT 26/18 A2984 RMK A01 T02610181  RH  061%=      5-min Rain = 0
KPD4 141706Z 20012KT 26/19 A2984 RMK A01 T02610185  RH  063%=      5-min Rain = 0
KPD4 141707Z 19012KT 27/19 A2984 RMK A01 T02650187  RH  062%=      5-min Rain = 0
KPD4 141708Z 19011KT 27/18 A2983 RMK A01 T02670182  RH  060%=      5-min Rain = 0
KPD4 141709Z 19009KT 27/19 A2983 RMK A01 T02660185  RH  061%=      5-min Rain = 0
KPD4 141710Z 20011KT 27/19 A2983 RMK A01 T02660186  RH  062%=      5-min Rain = 0
KPD4 141711Z 19013KT 27/18 A2983 RMK A01 T02670182  RH  060%=      5-min Rain = 0
KPD4 141712Z 20010KT 27/18 A2983 RMK A01 T02650181  RH  060%=      5-min Rain = 0
KPD4 141713Z 19012KT 27/18 A2983 RMK A01 T02650184  RH  061%=      5-min Rain = 0
KPD4 141714Z 19013KT 27/18 A2983 RMK A01 T02650183  RH  061%=      5-min Rain = 0
KPD4 141715Z 19013KT 27/18 A2983 RMK A01 T02660184  RH  061%=      5-min Rain = 0
KPD4 141716Z 18011KT 27/18 A2983 RMK A01 T02670181  RH  059%=      5-min Rain = 0
KPD4 141717Z 20010KT 27/18 A2983 RMK A01 T02670181  RH  059%=      5-min Rain = 0
KPD4 141718Z 19011KT 27/18 A2983 RMK A01 T02660182  RH  060%=      5-min Rain = 0
KPD4 141719Z 21012KT 27/19 A2983 RMK A01 T02670185  RH  061%=      5-min Rain = 0
KPD4 141720Z 21012KT 27/18 A2983 RMK A01 T02680183  RH  060%=      5-min Rain = 0
KPD4 141721Z 21011KT 27/18 A2983 RMK A01 T02680182  RH  059%=      5-min Rain = 0
KPD4 141722Z 19013KT 27/18 A2983 RMK A01 T02670183  RH  060%=      5-min Rain = 0
KPD4 141723Z 20013KT 27/18 A2983 RMK A01 T02670178  RH  058%=      5-min Rain = 0
KPD4 141724Z 20013KT 27/18 A2983 RMK A01 T02670177  RH  058%=      5-min Rain = 0
KPD4 141725Z 20011KT 27/18 A2982 RMK A01 T02680177  RH  057%=      5-min Rain = 0
KPD4 141726Z 19013KT 27/18 A2982 RMK A01 T02690180  RH  058%=      5-min Rain = 0
KPD4 141727Z 19015KT 27/18 A2982 RMK A01 T02700181  RH  058%=      5-min Rain = 0
KPD4 141728Z 19015KT 27/18 A2982 RMK A01 T02710179  RH  057%=      5-min Rain = 0
KPD4 141729Z 19011KT 27/18 A2982 RMK A01 T02710180  RH  058%=      5-min Rain = 0
KPD4 141730Z 21010KT 27/18 A2982 RMK A01 T02710183  RH  059%=      5-min Rain = 0
KPD4 141731Z 20011KT 27/18 A2982 RMK A01 T02700181  RH  058%=      5-min Rain = 0
KPD4 141732Z 19014KT 27/18 A2982 RMK A01 T02700177  RH  057%=      5-min Rain = 0
KPD4 141733Z 19012KT 27/17 A2982 RMK A01 T02690174  RH  056%=      5-min Rain = 0
KPD4 141734Z 18013KT 27/18 A2982 RMK A01 T02690179  RH  058%=      5-min Rain = 0
KPD4 141735Z 19014KT 27/18 A2982 RMK A01 T02690178  RH  057%=      5-min Rain = 0
KPD4 141736Z 19015KT 27/18 A2982 RMK A01 T02700176  RH  056%=      5-min Rain = 0
KPD4 141737Z 19013KT 27/18 A2982 RMK A01 T02690176  RH  057%=      5-min Rain = 0
KPD4 141738Z 19013KT 27/18 A2982 RMK A01 T02690177  RH  057%=      5-min Rain = 0
KPD4 141739Z 20012KT 27/18 A2982 RMK A01 T02710181  RH  058%=      5-min Rain = 0
KPD4 141740Z 21013KT 27/18 A2982 RMK A01 T02730178  RH  056%=      5-min Rain = 0
KPD4 141741Z 21012KT 27/18 A2982 RMK A01 T02730181  RH  057%=      5-min Rain = 0
KPD4 141742Z 21012KT 27/18 A2982 RMK A01 T02730180  RH  057%=      5-min Rain = 0
KPD4 141743Z 21013KT 28/18 A2982 RMK A01 T02750183  RH  057%=      5-min Rain = 0
KPD4 141744Z 22011KT 28/18 A2982 RMK A01 T02760181  RH  056%=      5-min Rain = 0
KPD4 141745Z 21011KT 28/18 A2982 RMK A01 T02770181  RH  056%=      5-min Rain = 0
KPD4 141746Z 21011KT 28/19 A2982 RMK A01 T02780185  RH  057%=      5-min Rain = 0
KPD4 141747Z 20012KT 28/19 A2982 RMK A01 T02800186  RH  057%=      5-min Rain = 0
KPD4 141748Z 19013KT 28/18 A2982 RMK A01 T02810184  RH  056%=      5-min Rain = 0
KPD4 141749Z 21013KT 28/18 A2982 RMK A01 T02810184  RH  056%=      5-min Rain = 0
KPD4 141750Z 20013KT 28/18 A2982 RMK A01 T02800182  RH  055%=      5-min Rain = 0
KPD4 141751Z 19013KT 28/18 A2982 RMK A01 T02820184  RH  055%=      5-min Rain = 0
KPD4 141752Z 18013KT 28/18 A2981 RMK A01 T02820182  RH  055%=      5-min Rain = 0
KPD4 141753Z 18015KT 28/18 A2981 RMK A01 T02800178  RH  054%=      5-min Rain = 0
KPD4 141754Z 19013KT 28/18 A2981 RMK A01 T02790178  RH  054%=      5-min Rain = 0
KPD4 141755Z 19011KT 28/19 A2981 RMK A01 T02780185  RH  057%=      5-min Rain = 0
KPD4 141756Z 19011KT 28/18 A2981 RMK A01 T02800183  RH  056%=      5-min Rain = 0
KPD4 141757Z 18012KT 28/18 A2981 RMK A01 T02800182  RH  055%=      5-min Rain = 0
KPD4 141758Z 19011KT 28/19 A2981 RMK A01 T02780186  RH  057%=      5-min Rain = 0
KPD4 141759Z 20013KT 28/18 A2981 RMK A01 T02790184  RH  056%=      5-min Rain = 0
KPD4 141800Z 19013KT 28/18 A2981 RMK A01 T02780182  RH  056%=      5-min Rain = 0
KPD4 141801Z 19011KT 28/18 A2981 RMK A01 T02770184  RH  057%=      5-min Rain = 0
KPD4 141802Z 19013KT 28/18 A2981 RMK A01 T02770184  RH  057%=      5-min Rain = 0
KPD4 141803Z 19013KT 28/18 A2981 RMK A01 T02770178  RH  055%=      5-min Rain = 0
KPD4 141804Z 19012KT 28/18 A2981 RMK A01 T02770178  RH  055%=      5-min Rain = 0
KPD4 141805Z 20011KT 28/18 A2981 RMK A01 T02760180  RH  056%=      5-min Rain = 0
KPD4 141806Z 19011KT 28/18 A2981 RMK A01 T02760180  RH  056%=      5-min Rain = 0
KPD4 141807Z 20013KT 28/18 A2981 RMK A01 T02760181  RH  056%=      5-min Rain = 0
KPD4 141808Z 19012KT 28/18 A2981 RMK A01 T02760181  RH  056%=      5-min Rain = 0
KPD4 141809Z 20011KT 28/19 A2981 RMK A01 T02770185  RH  057%=      5-min Rain = 0
KPD4 141810Z 21012KT 28/18 A2981 RMK A01 T02800182  RH  055%=      5-min Rain = 0
KPD4 141811Z 19012KT 28/19 A2981 RMK A01 T02810185  RH  056%=      5-min Rain = 0
KPD4 141812Z 20013KT 28/18 A2981 RMK A01 T02830182  RH  054%=      5-min Rain = 0
KPD4 141813Z 20014KT 28/18 A2981 RMK A01 T02830181  RH  054%=      5-min Rain = 0
KPD4 141814Z 21012KT 28/18 A2981 RMK A01 T02820178  RH  053%=      5-min Rain = 0
KPD4 141815Z 21010KT 28/18 A2981 RMK A01 T02800179  RH  054%=      5-min Rain = 0
KPD4 141816Z 20010KT 28/18 A2981 RMK A01 T02800180  RH  055%=      5-min Rain = 0
KPD4 141817Z 20010KT 28/18 A2981 RMK A01 T02790177  RH  054%=      5-min Rain = 0
KPD4 141818Z 21009KT 28/18 A2981 RMK A01 T02780180  RH  055%=      5-min Rain = 0
KPD4 141819Z 19009KT 28/18 A2981 RMK A01 T02780181  RH  055%=      5-min Rain = 0
KPD4 141820Z 19012KT 28/18 A2981 RMK A01 T02780176  RH  054%=      5-min Rain = 0
KPD4 141821Z 20012KT 28/18 A2981 RMK A01 T02770179  RH  055%=      5-min Rain = 0
KPD4 141822Z 21011KT 28/18 A2981 RMK A01 T02760176  RH  054%=      5-min Rain = 0
KPD4 141823Z 20009KT 28/18 A2981 RMK A01 T02750182  RH  057%=      5-min Rain = 0
KPD4 141824Z 20009KT 27/18 A2981 RMK A01 T02740178  RH  056%=      5-min Rain = 0
KPD4 141825Z 21009KT 27/18 A2981 RMK A01 T02740181  RH  057%=      5-min Rain = 0
KPD4 141826Z 22010KT 28/18 A2981 RMK A01 T02750181  RH  056%=      5-min Rain = 0
KPD4 141827Z 20011KT 28/18 A2981 RMK A01 T02770181  RH  056%=      5-min Rain = 0
KPD4 141828Z 20011KT 28/18 A2981 RMK A01 T02780180  RH  055%=      5-min Rain = 0
KPD4 141829Z 21011KT 28/18 A2981 RMK A01 T02780178  RH  054%=      5-min Rain = 0
KPD4 141830Z 19011KT 28/18 A2981 RMK A01 T02780182  RH  056%=      5-min Rain = 0
KPD4 141831Z 19012KT 28/18 A298 RMK A01 T02780180  RH  055%=      5-min Rain = 0
KPD4 141832Z 20012KT 28/18 A298 RMK A01 T02800175  RH  053%=      5-min Rain = 0
KPD4 141833Z 21011KT 28/18 A298 RMK A01 T02820179  RH  054%=      5-min Rain = 0
KPD4 141834Z 21010KT 28/18 A298 RMK A01 T02840178  RH  053%=      5-min Rain = 0
KPD4 141835Z 21008KT 28/18 A298 RMK A01 T02840182  RH  054%=      5-min Rain = 0
KPD4 141836Z 20010KT 29/18 A298 RMK A01 T02850177  RH  052%=      5-min Rain = 0
KPD4 141837Z 20009KT 28/18 A298 RMK A01 T02840175  RH  052%=      5-min Rain = 0
KPD4 141838Z 21010KT 28/19 A298 RMK A01 T02840185  RH  055%=      5-min Rain = 0
KPD4 141839Z 20012KT 29/18 A298 RMK A01 T02850178  RH  052%=      5-min Rain = 0
KPD4 141840Z 20011KT 29/18 A298 RMK A01 T02850177  RH  052%=      5-min Rain = 0
KPD4 141841Z 20011KT 28/18 A298 RMK A01 T02840178  RH  052%=      5-min Rain = 0
KPD4 141842Z 20011KT 29/18 A298 RMK A01 T02860181  RH  053%=      5-min Rain = 0
KPD4 141843Z 21011KT 29/18 A298 RMK A01 T02870176  RH  051%=      5-min Rain = 0
KPD4 141844Z 20011KT 29/17 A298 RMK A01 T02860172  RH  050%=      5-min Rain = 0
KPD4 141845Z 21010KT 29/17 A298 RMK A01 T02850171  RH  050%=      5-min Rain = 0
KPD4 141846Z 21009KT 28/18 A298 RMK A01 T02830175  RH  052%=      5-min Rain = 0
KPD4 141847Z 20012KT 28/18 A298 RMK A01 T02840180  RH  053%=      5-min Rain = 0
KPD4 141848Z 20011KT 29/18 A298 RMK A01 T02850175  RH  051%=      5-min Rain = 0
KPD4 141849Z 20011KT 29/17 A298 RMK A01 T02850174  RH  051%=      5-min Rain = 0
KPD4 141850Z 20009KT 29/18 A298 RMK A01 T02850177  RH  052%=      5-min Rain = 0
KPD4 141851Z 21010KT 29/18 A298 RMK A01 T02880184  RH  053%=      5-min Rain = 0
KPD4 141852Z 21009KT 29/18 A298 RMK A01 T02890178  RH  051%=      5-min Rain = 0
KPD4 141853Z 22010KT 29/18 A298 RMK A01 T02900179  RH  051%=      5-min Rain = 0
KPD4 141854Z 20009KT 29/18 A298 RMK A01 T02910178  RH  050%=      5-min Rain = 0
KPD4 141855Z 20009KT 29/17 A298 RMK A01 T02910174  RH  049%=      5-min Rain = 0
KPD4 141856Z 20010KT 29/18 A298 RMK A01 T02920183  RH  052%=      5-min Rain = 0
KPD4 141857Z 21011KT 29/18 A2979 RMK A01 T02930175  RH  049%=      5-min Rain = 0
KPD4 141858Z 21008KT 29/17 A298 RMK A01 T02910171  RH  048%=      5-min Rain = 0
KPD4 141859Z 19009KT 29/18 A2979 RMK A01 T02910176  RH  050%=      5-min Rain = 0
KPD4 141900Z 19009KT 29/19 A2979 RMK A01 T02920185  RH  053%=      5-min Rain = 0
KPD4 141901Z 20011KT 29/18 A2979 RMK A01 T02940183  RH  051%=      5-min Rain = 0
KPD4 141902Z 20011KT 29/18 A2979 RMK A01 T02940177  RH  049%=      5-min Rain = 0
KPD4 141903Z 20008KT 29/18 A2979 RMK A01 T02890177  RH  051%=      5-min Rain = 0
KPD4 141904Z 18011KT 29/18 A2979 RMK A01 T02860178  RH  052%=      5-min Rain = 0
KPD4 141905Z 19010KT 29/18 A2979 RMK A01 T02850176  RH  052%=      5-min Rain = 0
KPD4 141906Z 19011KT 28/18 A2979 RMK A01 T02840178  RH  053%=      5-min Rain = 0
KPD4 141907Z 19011KT 28/18 A2979 RMK A01 T02840175  RH  052%=      5-min Rain = 0
KPD4 141908Z 20011KT 28/17 A2979 RMK A01 T02840174  RH  051%=      5-min Rain = 0
KPD4 141909Z 21012KT 29/18 A2979 RMK A01 T02850175  RH  052%=      5-min Rain = 0
KPD4 141910Z 21010KT 29/18 A2979 RMK A01 T02850175  RH  051%=      5-min Rain = 0
KPD4 141911Z 20009KT 29/18 A2979 RMK A01 T02860177  RH  052%=      5-min Rain = 0
KPD4 141912Z 20009KT 29/18 A2979 RMK A01 T02870180  RH  052%=      5-min Rain = 0
KPD4 141913Z 20009KT 29/18 A2979 RMK A01 T02880180  RH  052%=      5-min Rain = 0
KPD4 141914Z 19008KT 29/19 A2979 RMK A01 T02890186  RH  054%=      5-min Rain = 0
KPD4 141915Z 19009KT 29/18 A2979 RMK A01 T02890184  RH  053%=      5-min Rain = 0
KPD4 141916Z 19008KT 29/19 A2979 RMK A01 T02910185  RH  053%=      5-min Rain = 0
KPD4 141917Z 21009KT 29/18 A2979 RMK A01 T02920184  RH  052%=      5-min Rain = 0
KPD4 141918Z 20010KT 29/18 A2979 RMK A01 T02920181  RH  051%=      5-min Rain = 0
KPD4 141919Z 20010KT 29/18 A2979 RMK A01 T02920181  RH  051%=      5-min Rain = 0
KPD4 141920Z 20010KT 29/18 A2979 RMK A01 T02920175  RH  049%=      5-min Rain = 0
KPD4 141921Z 20008KT 29/18 A2979 RMK A01 T02910182  RH  052%=      5-min Rain = 0
KPD4 141922Z 20009KT 29/18 A2979 RMK A01 T02920181  RH  051%=      5-min Rain = 0
KPD4 141923Z 20008KT 29/18 A2979 RMK A01 T02940179  RH  050%=      5-min Rain = 0
KPD4 141924Z 20009KT 30/18 A2979 RMK A01 T02950181  RH  050%=      5-min Rain = 0
KPD4 141925Z 20009KT 30/18 A2978 RMK A01 T02950177  RH  049%=      5-min Rain = 0
KPD4 141926Z 21009KT 30/18 A2978 RMK A01 T02960180  RH  050%=      5-min Rain = 0
KPD4 141927Z 21008KT 30/18 A2978 RMK A01 T02960175  RH  048%=      5-min Rain = 0
KPD4 141928Z 21007KT 30/18 A2978 RMK A01 T02970178  RH  049%=      5-min Rain = 0
KPD4 141929Z 22010KT 30/18 A2978 RMK A01 T02980177  RH  048%=      5-min Rain = 0
KPD4 141930Z 22007KT 30/18 A2978 RMK A01 T02990179  RH  049%=      5-min Rain = 0
KPD4 141931Z 21007KT 30/18 A2978 RMK A01 T03000177  RH  047%=      5-min Rain = 0
KPD4 141932Z 19008KT 30/18 A2978 RMK A01 T03010178  RH  048%=      5-min Rain = 0
KPD4 141933Z 22009KT 30/18 A2978 RMK A01 T03000178  RH  048%=      5-min Rain = 0
KPD4 141934Z 22008KT 30/18 A2978 RMK A01 T03000176  RH  047%=      5-min Rain = 0
KPD4 141935Z 22011KT 30/18 A2978 RMK A01 T03000181  RH  049%=      5-min Rain = 0
KPD4 141936Z 24009KT 30/18 A2978 RMK A01 T03010179  RH  048%=      5-min Rain = 0
KPD4 141937Z 22010KT 30/19 A2978 RMK A01 T03010185  RH  050%=      5-min Rain = 0
KPD4 141938Z 20010KT 30/18 A2978 RMK A01 T03030180  RH  048%=      5-min Rain = 0
KPD4 141939Z 18008KT 30/18 A2978 RMK A01 T03030182  RH  048%=      5-min Rain = 0
KPD4 141940Z 17008KT 30/18 A2978 RMK A01 T03030184  RH  049%=      5-min Rain = 0
KPD4 141941Z 17008KT 30/18 A2978 RMK A01 T03040184  RH  049%=      5-min Rain = 0
KPD4 141942Z 19008KT 30/18 A2978 RMK A01 T03040182  RH  048%=      5-min Rain = 0
KPD4 141943Z 19006KT 30/18 A2978 RMK A01 T03040175  RH  046%=      5-min Rain = 0
KPD4 141944Z 19007KT 30/19 A2978 RMK A01 T03030191  RH  051%=      5-min Rain = 0
KPD4 141945Z 18007KT 31/18 A2978 RMK A01 T03050176  RH  046%=      5-min Rain = 0
KPD4 141946Z 18007KT 30/18 A2978 RMK A01 T03020178  RH  047%=      5-min Rain = 0
KPD4 141947Z 21007KT 30/18 A2978 RMK A01 T03000177  RH  048%=      5-min Rain = 0
KPD4 141948Z 20009KT 30/18 A2978 RMK A01 T03000182  RH  049%=      5-min Rain = 0
KPD4 141949Z 21007KT 30/19 A2978 RMK A01 T03020185  RH  050%=      5-min Rain = 0
KPD4 141950Z 22007KT 30/19 A2978 RMK A01 T03040190  RH  050%=      5-min Rain = 0
KPD4 141951Z 22010KT 31/19 A2978 RMK A01 T03070186  RH  049%=      5-min Rain = 0
KPD4 141952Z 22010KT 31/18 A2978 RMK A01 T03070180  RH  047%=      5-min Rain = 0
KPD4 141953Z 20010KT 31/18 A2978 RMK A01 T03060179  RH  047%=      5-min Rain = 0
KPD4 141954Z 20009KT 31/18 A2978 RMK A01 T03050183  RH  048%=      5-min Rain = 0
KPD4 141955Z 20008KT 31/19 A2978 RMK A01 T03060185  RH  049%=      5-min Rain = 0
KPD4 141956Z 19009KT 31/18 A2978 RMK A01 T03070183  RH  048%=      5-min Rain = 0
KPD4 141957Z 20010KT 31/18 A2978 RMK A01 T03060179  RH  047%=      5-min Rain = 0
KPD4 141958Z 20008KT 31/18 A2978 RMK A01 T03050177  RH  046%=      5-min Rain = 0
KPD4 141959Z 19009KT 31/18 A2978 RMK A01 T03050181  RH  047%=      5-min Rain = 0
KPD4 142000Z 17009KT 31/18 A2977 RMK A01 T03060184  RH  048%=      5-min Rain = 0
KPD4 142001Z 17010KT 31/19 A2977 RMK A01 T03090187  RH  048%=      5-min Rain = 0
KPD4 142002Z 18013KT 31/18 A2977 RMK A01 T03100182  RH  046%=      5-min Rain = 0
KPD4 142003Z 17011KT 31/18 A2977 RMK A01 T03090184  RH  047%=      5-min Rain = 0
KPD4 142004Z 16012KT 31/18 A2977 RMK A01 T03090183  RH  047%=      5-min Rain = 0
KPD4 142005Z 16011KT 31/18 A2977 RMK A01 T03100178  RH  045%=      5-min Rain = 0
KPD4 142006Z 17011KT 31/18 A2977 RMK A01 T03090184  RH  047%=      5-min Rain = 0
KPD4 142007Z 19008KT 31/19 A2977 RMK A01 T03090186  RH  048%=      5-min Rain = 0
KPD4 142008Z 19010KT 31/19 A2977 RMK A01 T03120187  RH  047%=      5-min Rain = 0
KPD4 142009Z 20008KT 31/19 A2977 RMK A01 T03120189  RH  048%=      5-min Rain = 0
KPD4 142010Z 20010KT 31/18 A2977 RMK A01 T03130184  RH  046%=      5-min Rain = 0
KPD4 142011Z 19010KT 31/18 A2977 RMK A01 T03130182  RH  046%=      5-min Rain = 0
KPD4 142012Z 18011G17KT 31/19 A2977 RMK A01 T03130188  RH  047%=      5-min Rain = 0
KPD4 142013Z 18014KT 31/18 A2977 RMK A01 T03130182  RH  045%=      5-min Rain = 0
KPD4 142014Z 17013KT 31/18 A2977 RMK A01 T03120182  RH  046%=      5-min Rain = 0
KPD4 142015Z 16012KT 31/18 A2977 RMK A01 T03110179  RH  045%=      5-min Rain = 0
KPD4 142016Z 18014KT 31/18 A2977 RMK A01 T03110184  RH  047%=      5-min Rain = 0
KPD4 142017Z 18015KT 31/18 A2977 RMK A01 T03120176  RH  044%=      5-min Rain = 0
KPD4 142018Z 18012KT 31/18 A2977 RMK A01 T03120175  RH  044%=      5-min Rain = 0
KPD4 142019Z 17010KT 31/18 A2977 RMK A01 T03110179  RH  045%=      5-min Rain = 0
KPD4 142020Z 16013KT 31/18 A2977 RMK A01 T03110178  RH  045%=      5-min Rain = 0
KPD4 142021Z 18012KT 31/18 A2977 RMK A01 T03120179  RH  045%=      5-min Rain = 0
KPD4 142022Z 17013KT 31/17 A2977 RMK A01 T03130173  RH  043%=      5-min Rain = 0
KPD4 142023Z 17011KT 31/18 A2977 RMK A01 T03120177  RH  044%=      5-min Rain = 0
KPD4 142024Z 18011KT 31/18 A2977 RMK A01 T03120176  RH  044%=      5-min Rain = 0
KPD4 142025Z 18012KT 31/18 A2977 RMK A01 T03120180  RH  046%=      5-min Rain = 0
KPD4 142026Z 18012KT 31/19 A2977 RMK A01 T03130185  RH  047%=      5-min Rain = 0
KPD4 142027Z 19013KT 32/18 A2977 RMK A01 T03150180  RH  045%=      5-min Rain = 0
KPD4 142028Z 19012KT 32/17 A2977 RMK A01 T03150173  RH  043%=      5-min Rain = 0
KPD4 142029Z 19011KT 31/17 A2977 RMK A01 T03140174  RH  043%=      5-min Rain = 0
KPD4 142030Z 20010KT 31/17 A2977 RMK A01 T03140172  RH  043%=      5-min Rain = 0
KPD4 142031Z 19011KT 31/18 A2977 RMK A01 T03140178  RH  044%=      5-min Rain = 0
KPD4 142032Z 18012KT 31/18 A2977 RMK A01 T03140180  RH  045%=      5-min Rain = 0
KPD4 142033Z 18009KT 32/18 A2977 RMK A01 T03150180  RH  045%=      5-min Rain = 0
KPD4 142034Z 17013KT 32/18 A2977 RMK A01 T03160182  RH  045%=      5-min Rain = 0
KPD4 142035Z 17012KT 32/19 A2977 RMK A01 T03160185  RH  046%=      5-min Rain = 0
KPD4 142036Z 16011KT 32/19 A2977 RMK A01 T03150187  RH  047%=      5-min Rain = 0
KPD4 142037Z 16011KT 32/18 A2977 RMK A01 T03160184  RH  046%=      5-min Rain = 0
KPD4 142038Z 17010KT 32/19 A2977 RMK A01 T03160190  RH  047%=      5-min Rain = 0
KPD4 142039Z 17012G17KT 32/18 A2977 RMK A01 T03170181  RH  044%=      5-min Rain = 0
KPD4 142040Z 18013KT 32/18 A2977 RMK A01 T03160180  RH  044%=      5-min Rain = 0
KPD4 142041Z 19012KT 32/18 A2977 RMK A01 T03160175  RH  043%=      5-min Rain = 0
KPD4 142042Z 18012KT 32/18 A2977 RMK A01 T03160177  RH  044%=      5-min Rain = 0
KPD4 142043Z 17013KT 32/18 A2977 RMK A01 T03150176  RH  043%=      5-min Rain = 0
KPD4 142044Z 16013KT 32/18 A2977 RMK A01 T03150177  RH  044%=      5-min Rain = 0
KPD4 142045Z 17011KT 31/18 A2977 RMK A01 T03140181  RH  045%=      5-min Rain = 0
KPD4 142046Z 17011KT 31/19 A2977 RMK A01 T03130190  RH  048%=      5-min Rain = 0
KPD4 142047Z 17013KT 31/19 A2977 RMK A01 T03140191  RH  048%=      5-min Rain = 0
KPD4 142048Z 19013KT 31/18 A2977 RMK A01 T03140182  RH  045%=      5-min Rain = 0
KPD4 142049Z 18013KT 31/18 A2977 RMK A01 T03130180  RH  045%=      5-min Rain = 0
KPD4 142050Z 17012KT 31/18 A2977 RMK A01 T03130178  RH  045%=      5-min Rain = 0
KPD4 142051Z 18012KT 31/18 A2977 RMK A01 T03130184  RH  046%=      5-min Rain = 0
KPD4 142052Z 18014KT 31/19 A2977 RMK A01 T03140189  RH  047%=      5-min Rain = 0
KPD4 142053Z 19013KT 31/19 A2977 RMK A01 T03140186  RH  046%=      5-min Rain = 0
KPD4 142054Z 17011G17KT 31/19 A2977 RMK A01 T03140191  RH  048%=      5-min Rain = 0
KPD4 142055Z 16014KT 32/19 A2976 RMK A01 T03150185  RH  046%=      5-min Rain = 0
KPD4 142056Z 16013KT 31/19 A2977 RMK A01 T03140185  RH  046%=      5-min Rain = 0
KPD4 142057Z 16012KT 31/19 A2976 RMK A01 T03130187  RH  047%=      5-min Rain = 0
KPD4 142058Z 17011KT 31/19 A2977 RMK A01 T03130188  RH  047%=      5-min Rain = 0
KPD4 142059Z 17013G18KT 31/19 A2976 RMK A01 T03140187  RH  047%=      5-min Rain = 0
KPD4 142100Z 17014KT 32/18 A2976 RMK A01 T03150180  RH  045%=      5-min Rain = 0
KPD4 142101Z 19013KT 32/18 A2976 RMK A01 T03150180  RH  045%=      5-min Rain = 0
KPD4 142102Z 18014KT 32/18 A2976 RMK A01 T03150181  RH  045%=      5-min Rain = 0
KPD4 142103Z 17013KT 32/18 A2976 RMK A01 T03150179  RH  044%=      5-min Rain = 0
KPD4 142104Z 17012KT 31/18 A2976 RMK A01 T03140183  RH  046%=      5-min Rain = 0
KPD4 142105Z 17011KT 31/19 A2976 RMK A01 T03140185  RH  046%=      5-min Rain = 0
KPD4 142106Z 17013G18KT 31/19 A2976 RMK A01 T03140186  RH  046%=      5-min Rain = 0
KPD4 142107Z 17015KT 32/18 A2976 RMK A01 T03150178  RH  044%=      5-min Rain = 0
KPD4 142108Z 18012G18KT 32/18 A2976 RMK A01 T03150177  RH  044%=      5-min Rain = 0
KPD4 142109Z 18011KT 31/18 A2976 RMK A01 T03140183  RH  046%=      5-min Rain = 0
KPD4 142110Z 18010KT 32/18 A2976 RMK A01 T03150184  RH  046%=      5-min Rain = 0
KPD4 142111Z 18010G16KT 32/19 A2976 RMK A01 T03170190  RH  047%=      5-min Rain = 0
KPD4 142112Z 18014KT 32/18 A2976 RMK A01 T03180181  RH  044%=      5-min Rain = 0
KPD4 142113Z 17014KT 32/17 A2976 RMK A01 T03170174  RH  042%=      5-min Rain = 0
KPD4 142114Z 17013KT 32/18 A2976 RMK A01 T03150176  RH  044%=      5-min Rain = 0
KPD4 142115Z 17012KT 31/18 A2976 RMK A01 T03140179  RH  045%=      5-min Rain = 0
KPD4 142116Z 17015KT 32/18 A2976 RMK A01 T03150177  RH  044%=      5-min Rain = 0
KPD4 142117Z 17014KT 32/18 A2976 RMK A01 T03160175  RH  043%=      5-min Rain = 0
KPD4 142118Z 18012KT 32/18 A2976 RMK A01 T03150180  RH  045%=      5-min Rain = 0
KPD4 142119Z 18013KT 32/18 A2976 RMK A01 T03160178  RH  044%=      5-min Rain = 0
KPD4 142120Z 18012KT 32/17 A2976 RMK A01 T03170172  RH  042%=      5-min Rain = 0
KPD4 142121Z 18013KT 32/17 A2976 RMK A01 T03160172  RH  042%=      5-min Rain = 0
KPD4 142122Z 18011KT 32/17 A2976 RMK A01 T03160171  RH  042%=      5-min Rain = 0
KPD4 142123Z 17011KT 32/17 A2976 RMK A01 T03160173  RH  043%=      5-min Rain = 0
KPD4 142124Z 17013KT 32/17 A2976 RMK A01 T03160172  RH  042%=      5-min Rain = 0
KPD4 142125Z 17012KT 32/18 A2976 RMK A01 T03160175  RH  043%=      5-min Rain = 0
KPD4 142126Z 18012KT 32/17 A2976 RMK A01 T03170171  RH  042%=      5-min Rain = 0
KPD4 142127Z 17013KT 32/17 A2976 RMK A01 T03170168  RH  041%=      5-min Rain = 0
KPD4 142128Z 16012KT 32/17 A2976 RMK A01 T03160172  RH  042%=      5-min Rain = 0
KPD4 142129Z 17012KT 32/17 A2976 RMK A01 T03160174  RH  043%=      5-min Rain = 0
KPD4 142130Z 18011KT 32/17 A2976 RMK A01 T03170166  RH  041%=      5-min Rain = 0
KPD4 142131Z 18011KT 32/17 A2976 RMK A01 T03170173  RH  042%=      5-min Rain = 0
KPD4 142132Z 18009KT 32/18 A2976 RMK A01 T03170180  RH  044%=      5-min Rain = 0
KPD4 142133Z 18011KT 32/18 A2976 RMK A01 T03200181  RH  044%=      5-min Rain = 0
KPD4 142134Z 19008KT 32/17 A2976 RMK A01 T03210174  RH  042%=      5-min Rain = 0
KPD4 142135Z 18010G16KT 32/19 A2976 RMK A01 T03220186  RH  044%=      5-min Rain = 0
KPD4 142136Z 19012KT 32/18 A2976 RMK A01 T03240179  RH  042%=      5-min Rain = 0
KPD4 142137Z 18014KT 33/18 A2976 RMK A01 T03250178  RH  042%=      5-min Rain = 0
KPD4 142138Z 18015KT 32/17 A2976 RMK A01 T03220166  RH  039%=      5-min Rain = 0
KPD4 142139Z 17012KT 32/17 A2976 RMK A01 T03170170  RH  041%=      5-min Rain = 0
KPD4 142140Z 17012KT 31/17 A2976 RMK A01 T03140171  RH  042%=      5-min Rain = 0
KPD4 142141Z 16015KT 31/17 A2976 RMK A01 T03120168  RH  042%=      5-min Rain = 0
KPD4 142142Z 17014KT 31/17 A2976 RMK A01 T03100167  RH  042%=      5-min Rain = 0
KPD4 142143Z 17012KT 31/17 A2976 RMK A01 T03090166  RH  042%=      5-min Rain = 0
KPD4 142144Z 17013KT 31/17 A2975 RMK A01 T03080170  RH  044%=      5-min Rain = 0
KPD4 142145Z 17015G20KT 31/17 A2975 RMK A01 T03070166  RH  043%=      5-min Rain = 0
KPD4 142146Z 17014KT 31/16 A2975 RMK A01 T03060164  RH  042%=      5-min Rain = 0
KPD4 142147Z 17015KT 31/17 A2975 RMK A01 T03060165  RH  043%=      5-min Rain = 0
KPD4 142148Z 17014KT 31/16 A2975 RMK A01 T03050162  RH  042%=      5-min Rain = 0
KPD4 142149Z 17013KT 31/16 A2975 RMK A01 T03050159  RH  041%=      5-min Rain = 0
KPD4 142150Z 17012KT 30/16 A2975 RMK A01 T03040162  RH  042%=      5-min Rain = 0
KPD4 142151Z 17011KT 30/17 A2975 RMK A01 T03040165  RH  043%=      5-min Rain = 0
KPD4 142152Z 17011KT 30/17 A2975 RMK A01 T03030170  RH  045%=      5-min Rain = 0
KPD4 142153Z 18012KT 30/17 A2975 RMK A01 T03020166  RH  044%=      5-min Rain = 0
KPD4 142154Z 18011KT 30/17 A2975 RMK A01 T03020167  RH  044%=      5-min Rain = 0
KPD4 142155Z 18011KT 30/17 A2975 RMK A01 T03010168  RH  045%=      5-min Rain = 0
KPD4 142156Z 18010KT 30/17 A2975 RMK A01 T03010168  RH  045%=      5-min Rain = 0
KPD4 142157Z 18012KT 30/16 A2975 RMK A01 T03000164  RH  044%=      5-min Rain = 0
KPD4 142158Z 17011KT 30/16 A2975 RMK A01 T03010164  RH  044%=      5-min Rain = 0
KPD4 142159Z 18011KT 30/17 A2975 RMK A01 T03010165  RH  044%=      5-min Rain = 0
KPD4 142200Z 18011KT 30/17 A2975 RMK A01 T03000169  RH  045%=      5-min Rain = 0
KPD4 142201Z 19011KT 30/17 A2975 RMK A01 T02990170  RH  046%=      5-min Rain = 0
KPD4 142202Z 18011KT 30/17 A2975 RMK A01 T03000170  RH  046%=      5-min Rain = 0
KPD4 142203Z 18010KT 30/17 A2975 RMK A01 T02990165  RH  044%=      5-min Rain = 0
KPD4 142204Z 18010KT 30/17 A2975 RMK A01 T02990168  RH  045%=      5-min Rain = 0
KPD4 142205Z 18009KT 30/17 A2975 RMK A01 T02990168  RH  045%=      5-min Rain = 0
KPD4 142206Z 18009KT 30/17 A2975 RMK A01 T02990170  RH  046%=      5-min Rain = 0
KPD4 142207Z 18009KT 30/17 A2975 RMK A01 T02980171  RH  046%=      5-min Rain = 0
KPD4 142208Z 18009KT 30/17 A2975 RMK A01 T02980166  RH  045%=      5-min Rain = 0
KPD4 142209Z 18009KT 30/17 A2975 RMK A01 T02980172  RH  047%=      5-min Rain = 0
KPD4 142210Z 18010KT 30/17 A2975 RMK A01 T02980166  RH  045%=      5-min Rain = 0
KPD4 142211Z 18009KT 30/17 A2975 RMK A01 T02980167  RH  045%=      5-min Rain = 0
KPD4 142212Z 19008KT 30/17 A2975 RMK A01 T02980172  RH  047%=      5-min Rain = 0
KPD4 142213Z 18009KT 30/17 A2975 RMK A01 T02980168  RH  046%=      5-min Rain = 0
KPD4 142214Z 19007KT 30/17 A2975 RMK A01 T02980172  RH  047%=      5-min Rain = 0
KPD4 142215Z 19008KT 30/18 A2975 RMK A01 T02980175  RH  048%=      5-min Rain = 0
KPD4 142216Z 20008KT 30/17 A2975 RMK A01 T02980173  RH  047%=      5-min Rain = 0
KPD4 142217Z 19006KT 30/17 A2975 RMK A01 T02970173  RH  047%=      5-min Rain = 0
KPD4 142218Z 20007KT 30/18 A2975 RMK A01 T02970175  RH  048%=      5-min Rain = 0
KPD4 142219Z 20007KT 30/18 A2975 RMK A01 T02960177  RH  049%=      5-min Rain = 0
KPD4 142220Z 20007KT 30/18 A2975 RMK A01 T02960177  RH  049%=      5-min Rain = 0
KPD4 142221Z 20006KT 30/18 A2975 RMK A01 T02950178  RH  049%=      5-min Rain = 0
KPD4 142222Z 20006KT 30/18 A2975 RMK A01 T02950183  RH  051%=      5-min Rain = 0
KPD4 142223Z 20007KT 29/18 A2975 RMK A01 T02940180  RH  050%=      5-min Rain = 0
KPD4 142224Z 20007KT 29/18 A2975 RMK A01 T02940176  RH  049%=      5-min Rain = 0
KPD4 142225Z 20007KT 29/18 A2975 RMK A01 T02940175  RH  049%=      5-min Rain = 0
KPD4 142226Z 20006KT 29/18 A2975 RMK A01 T02940175  RH  049%=      5-min Rain = 0
KPD4 142227Z 20007KT 30/18 A2974 RMK A01 T02950178  RH  049%=      5-min Rain = 0
KPD4 142228Z 20007KT 30/18 A2974 RMK A01 T02950177  RH  049%=      5-min Rain = 0
KPD4 142229Z 20007KT 30/18 A2974 RMK A01 T02950175  RH  048%=      5-min Rain = 0
KPD4 142230Z 19006KT 30/18 A2974 RMK A01 T02950176  RH  049%=      5-min Rain = 0
KPD4 142231Z 19006KT 30/18 A2974 RMK A01 T02950180  RH  050%=      5-min Rain = 0
KPD4 142232Z 19006KT 30/18 A2974 RMK A01 T02950179  RH  050%=      5-min Rain = 0
KPD4 142233Z 19006KT 30/18 A2974 RMK A01 T02950178  RH  049%=      5-min Rain = 0
KPD4 142234Z 19006KT 30/18 A2974 RMK A01 T02950181  RH  051%=      5-min Rain = 0
KPD4 142235Z 19006KT 30/18 A2974 RMK A01 T02950176  RH  049%=      5-min Rain = 0
KPD4 142236Z 19006KT 30/18 A2974 RMK A01 T02950177  RH  049%=      5-min Rain = 0
KPD4 142237Z 19006KT 30/18 A2974 RMK A01 T02950176  RH  049%=      5-min Rain = 0
KPD4 142238Z 20005KT 30/18 A2974 RMK A01 T02950178  RH  049%=      5-min Rain = 0
KPD4 142239Z 20006KT 30/18 A2974 RMK A01 T02960181  RH  050%=      5-min Rain = 0
KPD4 142240Z 20006KT 30/18 A2974 RMK A01 T02960176  RH  048%=      5-min Rain = 0
KPD4 142241Z 20006KT 30/17 A2974 RMK A01 T02950172  RH  047%=      5-min Rain = 0
KPD4 142242Z 20007KT 30/17 A2974 RMK A01 T02960170  RH  047%=      5-min Rain = 0
KPD4 142243Z 20006KT 30/17 A2974 RMK A01 T02960169  RH  046%=      5-min Rain = 0
KPD4 142244Z 21007KT 30/17 A2974 RMK A01 T02970171  RH  047%=      5-min Rain = 0
KPD4 142245Z 21006KT 30/17 A2974 RMK A01 T02970172  RH  047%=      5-min Rain = 0
KPD4 142246Z 20005KT 30/18 A2974 RMK A01 T02970177  RH  049%=      5-min Rain = 0
KPD4 142247Z 20004KT 30/18 A2973 RMK A01 T02970181  RH  050%=      5-min Rain = 0
KPD4 142248Z 19005KT 30/18 A2973 RMK A01 T02970180  RH  049%=      5-min Rain = 0
KPD4 142249Z 20006KT 30/18 A2973 RMK A01 T02970180  RH  049%=      5-min Rain = 0
KPD4 142250Z 20005KT 30/18 A2973 RMK A01 T02980179  RH  049%=      5-min Rain = 0
KPD4 142251Z 19004KT 30/18 A2973 RMK A01 T02980177  RH  048%=      5-min Rain = 0
KPD4 142252Z 19004KT 30/18 A2973 RMK A01 T02990183  RH  050%=      5-min Rain = 0
KPD4 142253Z 19005KT 30/18 A2973 RMK A01 T02990177  RH  048%=      5-min Rain = 0
KPD4 142254Z 19006KT 30/18 A2973 RMK A01 T03000181  RH  049%=      5-min Rain = 0
KPD4 142255Z 19006KT 30/18 A2973 RMK A01 T03000177  RH  048%=      5-min Rain = 0
KPD4 142256Z 19005KT 30/18 A2973 RMK A01 T03000179  RH  048%=      5-min Rain = 0
KPD4 142257Z 19006KT 30/18 A2973 RMK A01 T02990177  RH  048%=      5-min Rain = 0
KPD4 142258Z 19007KT 30/18 A2973 RMK A01 T02990176  RH  047%=      5-min Rain = 0
KPD4 142259Z 19008KT 30/17 A2973 RMK A01 T03000172  RH  046%=      5-min Rain = 0
KPD4 142300Z 20007KT 30/17 A2973 RMK A01 T03000174  RH  047%=      5-min Rain = 0
KPD4 142301Z 20007KT 30/18 A2973 RMK A01 T03000177  RH  048%=      5-min Rain = 0
KPD4 142302Z 19008KT 30/18 A2972 RMK A01 T03000178  RH  048%=      5-min Rain = 0
KPD4 142303Z 19007KT 30/18 A2972 RMK A01 T03000177  RH  048%=      5-min Rain = 0
KPD4 142304Z 19007KT 30/18 A2972 RMK A01 T02990178  RH  048%=      5-min Rain = 0
KPD4 142305Z 19007KT 30/18 A2972 RMK A01 T02990176  RH  048%=      5-min Rain = 0
KPD4 142306Z 19007KT 30/18 A2972 RMK A01 T02990177  RH  048%=      5-min Rain = 0
KPD4 142307Z 19006KT 30/18 A2972 RMK A01 T02990180  RH  049%=      5-min Rain = 0
KPD4 142308Z 18007KT 30/18 A2972 RMK A01 T02980180  RH  049%=      5-min Rain = 0
KPD4 142309Z 18007KT 30/18 A2972 RMK A01 T02980178  RH  049%=      5-min Rain = 0
KPD4 142310Z 18007KT 30/18 A2972 RMK A01 T02970184  RH  050%=      5-min Rain = 0
KPD4 142311Z 18006KT 30/18 A2972 RMK A01 T02970181  RH  050%=      5-min Rain = 0
KPD4 142312Z 18006KT 30/18 A2972 RMK A01 T02970180  RH  050%=      5-min Rain = 0
KPD4 142313Z 19006KT 30/18 A2972 RMK A01 T02960181  RH  050%=      5-min Rain = 0
KPD4 142314Z 19006KT 30/18 A2972 RMK A01 T02960183  RH  050%=      5-min Rain = 0
KPD4 142315Z 19005KT 30/18 A2972 RMK A01 T02960183  RH  051%=      5-min Rain = 0
KPD4 142316Z 19005KT 30/18 A2972 RMK A01 T02960184  RH  051%=      5-min Rain = 0
KPD4 142317Z 19006KT 30/18 A2972 RMK A01 T02950180  RH  050%=      5-min Rain = 0
KPD4 142318Z 19005KT 30/18 A2972 RMK A01 T02950180  RH  050%=      5-min Rain = 0
KPD4 142319Z 19006KT 30/18 A2972 RMK A01 T02950181  RH  050%=      5-min Rain = 0
KPD4 142320Z 19004KT 30/18 A2972 RMK A01 T02950181  RH  050%=      5-min Rain = 0
KPD4 142321Z 18005KT 30/18 A2972 RMK A01 T02950184  RH  051%=      5-min Rain = 0
KPD4 142322Z 18005KT 30/19 A2972 RMK A01 T02950189  RH  053%=      5-min Rain = 0
KPD4 142323Z 18005KT 29/19 A2972 RMK A01 T02940193  RH  054%=      5-min Rain = 0
KPD4 142324Z 17005KT 29/19 A2972 RMK A01 T02940193  RH  055%=      5-min Rain = 0
KPD4 142325Z 17005KT 29/19 A2972 RMK A01 T02930191  RH  054%=      5-min Rain = 0
KPD4 142326Z 18006KT 29/19 A2971 RMK A01 T02920191  RH  054%=      5-min Rain = 0
KPD4 142327Z 17006KT 29/19 A2971 RMK A01 T02920189  RH  054%=      5-min Rain = 0
KPD4 142328Z 17007KT 29/19 A2971 RMK A01 T02910186  RH  053%=      5-min Rain = 0
KPD4 142329Z 17007KT 29/19 A2971 RMK A01 T02900186  RH  053%=      5-min Rain = 0
KPD4 142330Z 17007KT 29/19 A2971 RMK A01 T02900186  RH  054%=      5-min Rain = 0
KPD4 142331Z 17007KT 29/19 A2971 RMK A01 T02890185  RH  053%=      5-min Rain = 0
KPD4 142332Z 17007KT 29/18 A2971 RMK A01 T02890180  RH  052%=      5-min Rain = 0
KPD4 142333Z 17007KT 29/18 A2971 RMK A01 T02890177  RH  051%=      5-min Rain = 0
KPD4 142334Z 17007KT 29/18 A2971 RMK A01 T02890177  RH  051%=      5-min Rain = 0
KPD4 142335Z 17007KT 29/18 A2971 RMK A01 T02890179  RH  051%=      5-min Rain = 0
KPD4 142336Z 17007KT 29/18 A2971 RMK A01 T02890179  RH  052%=      5-min Rain = 0
KPD4 142337Z 16007KT 29/18 A2971 RMK A01 T02890178  RH  051%=      5-min Rain = 0
KPD4 142338Z 16006KT 29/18 A2971 RMK A01 T02880181  RH  052%=      5-min Rain = 0
KPD4 142339Z 15006KT 29/18 A2971 RMK A01 T02870183  RH  053%=      5-min Rain = 0
KPD4 142340Z 15006KT 29/18 A2971 RMK A01 T02870183  RH  054%=      5-min Rain = 0
KPD4 142341Z 15005KT 29/19 A2971 RMK A01 T02870185  RH  054%=      5-min Rain = 0
KPD4 142342Z 15005KT 29/19 A2971 RMK A01 T02860185  RH  054%=      5-min Rain = 0
KPD4 142343Z 15005KT 29/19 A2971 RMK A01 T02860185  RH  054%=      5-min Rain = 0
KPD4 142344Z 15005KT 29/19 A2971 RMK A01 T02860185  RH  054%=      5-min Rain = 0
KPD4 142345Z 15005KT 29/18 A2971 RMK A01 T02860181  RH  053%=      5-min Rain = 0
KPD4 142346Z 15005KT 29/18 A2971 RMK A01 T02870181  RH  053%=      5-min Rain = 0
KPD4 142347Z 14005KT 29/18 A2971 RMK A01 T02860180  RH  053%=      5-min Rain = 0
KPD4 142348Z 15005KT 29/18 A2971 RMK A01 T02860181  RH  053%=      5-min Rain = 0
KPD4 142349Z 14004KT 29/18 A2971 RMK A01 T02860183  RH  053%=      5-min Rain = 0
KPD4 142350Z 14004KT 29/18 A2971 RMK A01 T02860184  RH  054%=      5-min Rain = 0
KPD4 142351Z 14004KT 29/18 A2971 RMK A01 T02850184  RH  054%=      5-min Rain = 0
KPD4 142352Z 13003KT 29/18 A2971 RMK A01 T02850181  RH  053%=      5-min Rain = 0
KPD4 142353Z 12003KT 29/19 A2971 RMK A01 T02850185  RH  055%=      5-min Rain = 0
KPD4 142354Z 12003KT 29/19 A2971 RMK A01 T02850189  RH  056%=      5-min Rain = 0
KPD4 142355Z 11003KT 28/18 A2971 RMK A01 T02840184  RH  055%=      5-min Rain = 0
KPD4 142356Z 11002KT 28/18 A2971 RMK A01 T02840184  RH  054%=      5-min Rain = 0
KPD4 142357Z 11002KT 28/19 A2971 RMK A01 T02840186  RH  055%=      5-min Rain = 0
KPD4 142358Z 11002KT 29/19 A2971 RMK A01 T02850188  RH  056%=      5-min Rain = 0
KPD4 142359Z 10002KT 29/18 A297 RMK A01 T02850183  RH  054%=      5-min Rain = 0
KPD4 150000Z 10002KT 29/19 A2971 RMK A01 T02850186  RH  055%=      5-min Rain = 0
KPD4 150001Z 11003KT 29/19 A2971 RMK A01 T02850188  RH  056%=      5-min Rain = 0
KPD4 150002Z 11002KT 29/19 A2971 RMK A01 T02850193  RH  057%=      5-min Rain = 0
KPD4 150003Z 11003KT 28/19 A2971 RMK A01 T02840191  RH  057%=      5-min Rain = 0
KPD4 150004Z 10003KT 28/19 A2971 RMK A01 T02840189  RH  056%=      5-min Rain = 0
KPD4 150005Z 10003KT 28/19 A297 RMK A01 T02840189  RH  056%=      5-min Rain = 0
KPD4 150006Z 11003KT 28/19 A297 RMK A01 T02830188  RH  056%=      5-min Rain = 0
KPD4 150007Z 11003KT 28/19 A297 RMK A01 T02830185  RH  055%=      5-min Rain = 0
KPD4 150008Z 12004KT 28/18 A297 RMK A01 T02830184  RH  055%=      5-min Rain = 0
KPD4 150009Z 13003KT 28/17 A297 RMK A01 T02830172  RH  051%=      5-min Rain = 0
KPD4 150010Z 12003KT 29/17 A297 RMK A01 T02850171  RH  050%=      5-min Rain = 0
KPD4 150011Z 13003KT 29/17 A297 RMK A01 T02850171  RH  050%=      5-min Rain = 0
KPD4 150012Z 13003KT 29/17 A297 RMK A01 T02860170  RH  049%=      5-min Rain = 0
KPD4 150013Z 12002KT 29/17 A297 RMK A01 T02860168  RH  049%=      5-min Rain = 0
KPD4 150014Z 13001KT 29/17 A297 RMK A01 T02870173  RH  050%=      5-min Rain = 0
KPD4 150015Z 13001KT 29/17 A297 RMK A01 T02870171  RH  049%=      5-min Rain = 0
KPD4 150016Z 11001KT 29/17 A297 RMK A01 T02870168  RH  048%=      5-min Rain = 0
KPD4 150017Z 10001KT 29/17 A297 RMK A01 T02870166  RH  048%=      5-min Rain = 0
KPD4 150018Z 09001KT 29/16 A297 RMK A01 T02870164  RH  047%=      5-min Rain = 0
KPD4 150019Z 08002KT 29/16 A297 RMK A01 T02880164  RH  047%=      5-min Rain = 0
KPD4 150020Z 07002KT 29/16 A297 RMK A01 T02880161  RH  046%=      5-min Rain = 0
KPD4 150021Z 08002KT 29/17 A297 RMK A01 T02890169  RH  048%=      5-min Rain = 0
KPD4 150022Z 10002KT 29/18 A297 RMK A01 T02890182  RH  052%=      5-min Rain = 0
KPD4 150023Z 09002KT 29/18 A297 RMK A01 T02870177  RH  051%=      5-min Rain = 0
KPD4 150024Z 10002KT 29/17 A297 RMK A01 T02860172  RH  050%=      5-min Rain = 0
KPD4 150025Z 10002KT 29/17 A297 RMK A01 T02850169  RH  049%=      5-min Rain = 0
KPD4 150026Z 10002KT 29/17 A297 RMK A01 T02850168  RH  049%=      5-min Rain = 0
KPD4 150027Z 10002KT 29/17 A297 RMK A01 T02850170  RH  050%=      5-min Rain = 0
KPD4 150028Z 10002KT 29/17 A297 RMK A01 T02850171  RH  050%=      5-min Rain = 0
KPD4 150029Z 11002KT 28/17 A297 RMK A01 T02840174  RH  051%=      5-min Rain = 0
KPD4 150030Z 11003KT 28/17 A297 RMK A01 T02840171  RH  051%=      5-min Rain = 0
KPD4 150031Z 12003KT 28/17 A297 RMK A01 T02830170  RH  050%=      5-min Rain = 0
KPD4 150032Z 12004KT 28/17 A297 RMK A01 T02830172  RH  051%=      5-min Rain = 0
KPD4 150033Z 12004KT 28/17 A297 RMK A01 T02820173  RH  052%=      5-min Rain = 0
KPD4 150034Z 12004KT 28/16 A297 RMK A01 T02810164  RH  049%=      5-min Rain = 0
KPD4 150035Z 11004KT 28/17 A297 RMK A01 T02810165  RH  049%=      5-min Rain = 0
KPD4 150036Z 12004KT 28/17 A297 RMK A01 T02820169  RH  050%=      5-min Rain = 0
KPD4 150037Z 12005KT 28/17 A297 RMK A01 T02820170  RH  051%=      5-min Rain = 0
KPD4 150038Z 11004KT 28/17 A297 RMK A01 T02810170  RH  051%=      5-min Rain = 0
KPD4 150039Z 13004KT 28/17 A297 RMK A01 T02800173  RH  052%=      5-min Rain = 0
KPD4 150040Z 13005KT 28/17 A297 RMK A01 T02780174  RH  053%=      5-min Rain = 0
KPD4 150041Z 13006KT 28/17 A297 RMK A01 T02770172  RH  053%=      5-min Rain = 0
KPD4 150042Z 13005KT 28/17 A2969 RMK A01 T02770171  RH  052%=      5-min Rain = 0
KPD4 150043Z 12006KT 28/18 A297 RMK A01 T02760175  RH  054%=      5-min Rain = 0
KPD4 150044Z 13007KT 27/18 A2969 RMK A01 T02740177  RH  055%=      5-min Rain = 0
KPD4 150045Z 13007KT 27/18 A2969 RMK A01 T02730177  RH  056%=      5-min Rain = 0
KPD4 150046Z 13008KT 27/18 A2969 RMK A01 T02720177  RH  056%=      5-min Rain = 0
KPD4 150047Z 14009KT 27/18 A2969 RMK A01 T02710175  RH  056%=      5-min Rain = 0
KPD4 150048Z 13009KT 27/17 A2969 RMK A01 T02700173  RH  055%=      5-min Rain = 0
KPD4 150049Z 13009KT 27/17 A2969 RMK A01 T02710174  RH  055%=      5-min Rain = 0
KPD4 150050Z 13009KT 27/17 A2969 RMK A01 T02700172  RH  055%=      5-min Rain = 0
KPD4 150051Z 13011KT 27/17 A2969 RMK A01 T02710169  RH  054%=      5-min Rain = 0
KPD4 150052Z 13008KT 27/17 A2969 RMK A01 T02730169  RH  053%=      5-min Rain = 0
KPD4 150053Z 13009KT 27/17 A2969 RMK A01 T02740172  RH  054%=      5-min Rain = 0
KPD4 150054Z 13009KT 27/17 A2969 RMK A01 T02740171  RH  053%=      5-min Rain = 0
KPD4 150055Z 14009KT 28/17 A2969 RMK A01 T02750172  RH  053%=      5-min Rain = 0
KPD4 150056Z 13009KT 28/18 A2969 RMK A01 T02760175  RH  054%=      5-min Rain = 0
KPD4 150057Z 13011KT 28/18 A2969 RMK A01 T02760176  RH  055%=      5-min Rain = 0
KPD4 150058Z 14010KT 28/18 A2969 RMK A01 T02760176  RH  055%=      5-min Rain = 0
KPD4 150059Z 14009KT 28/18 A2969 RMK A01 T02760176  RH  055%=      5-min Rain = 0
KPD4 150100Z 14010KT 28/17 A2969 RMK A01 T02750174  RH  054%=      5-min Rain = 0
KPD4 150101Z 13008KT 28/18 A2969 RMK A01 T02760175  RH  054%=      5-min Rain = 0
KPD4 150102Z 13007KT 28/18 A2969 RMK A01 T02760176  RH  055%=      5-min Rain = 0
KPD4 150103Z 13007KT 28/18 A2969 RMK A01 T02750175  RH  054%=      5-min Rain = 0
KPD4 150104Z 12005KT 28/18 A2969 RMK A01 T02750175  RH  055%=      5-min Rain = 0
KPD4 150105Z 13006KT 27/18 A2969 RMK A01 T02740175  RH  055%=      5-min Rain = 0
KPD4 150106Z 13006KT 28/18 A2969 RMK A01 T02750176  RH  055%=      5-min Rain = 0
KPD4 150107Z 13006KT 28/18 A2969 RMK A01 T02750177  RH  055%=      5-min Rain = 0
KPD4 150108Z 12006KT 27/18 A2969 RMK A01 T02740178  RH  056%=      5-min Rain = 0
KPD4 150109Z 13006KT 27/18 A2969 RMK A01 T02740178  RH  056%=      5-min Rain = 0
KPD4 150110Z 13007KT 27/18 A2969 RMK A01 T02730180  RH  057%=      5-min Rain = 0
KPD4 150111Z 13006KT 27/18 A2968 RMK A01 T02720181  RH  057%=      5-min Rain = 0
KPD4 150112Z 13008KT 27/18 A2968 RMK A01 T02700181  RH  058%=      5-min Rain = 0
KPD4 150113Z 13008KT 27/18 A2968 RMK A01 T02700181  RH  058%=      5-min Rain = 0
KPD4 150114Z 13007KT 27/18 A2968 RMK A01 T02700183  RH  059%=      5-min Rain = 0
KPD4 150115Z 13007KT 27/18 A2968 RMK A01 T02700184  RH  059%=      5-min Rain = 0
KPD4 150116Z 13006KT 27/19 A2968 RMK A01 T02690185  RH  060%=      5-min Rain = 0
KPD4 150117Z 12007KT 27/19 A2968 RMK A01 T02690185  RH  060%=      5-min Rain = 0
KPD4 150118Z 13006KT 27/19 A2968 RMK A01 T02680186  RH  061%=      5-min Rain = 0
KPD4 150119Z 12006KT 27/19 A2968 RMK A01 T02680186  RH  061%=      5-min Rain = 0
KPD4 150120Z 12005KT 27/19 A2968 RMK A01 T02680187  RH  061%=      5-min Rain = 0
KPD4 150121Z 12005KT 27/19 A2968 RMK A01 T02680187  RH  061%=      5-min Rain = 0
KPD4 150122Z 12005KT 27/19 A2968 RMK A01 T02670187  RH  062%=      5-min Rain = 0
KPD4 150123Z 12004KT 27/19 A2968 RMK A01 T02670186  RH  061%=      5-min Rain = 0
KPD4 150124Z 12005KT 27/19 A2968 RMK A01 T02670186  RH  061%=      5-min Rain = 0
KPD4 150125Z 13007KT 27/19 A2968 RMK A01 T02670187  RH  061%=      5-min Rain = 0
KPD4 150126Z 13007KT 27/19 A2968 RMK A01 T02670187  RH  061%=      5-min Rain = 0
KPD4 150127Z 13007KT 27/19 A2968 RMK A01 T02670188  RH  062%=      5-min Rain = 0
KPD4 150128Z 13007KT 27/19 A2968 RMK A01 T02670188  RH  062%=      5-min Rain = 0
KPD4 150129Z 13008KT 27/19 A2968 RMK A01 T02660189  RH  062%=      5-min Rain = 0
KPD4 150130Z 13008KT 27/19 A2968 RMK A01 T02660189  RH  063%=      5-min Rain = 0
KPD4 150131Z 13008KT 27/19 A2968 RMK A01 T02660190  RH  063%=      5-min Rain = 0
KPD4 150132Z 13008KT 27/19 A2968 RMK A01 T02650190  RH  063%=      5-min Rain = 0
KPD4 150133Z 14007KT 27/19 A2968 RMK A01 T02650191  RH  064%=      5-min Rain = 0
KPD4 150134Z 14008KT 27/19 A2968 RMK A01 T02650191  RH  064%=      5-min Rain = 0
KPD4 150135Z 14008KT 27/19 A2968 RMK A01 T02650191  RH  064%=      5-min Rain = 0
KPD4 150136Z 14008KT 26/19 A2968 RMK A01 T02640192  RH  064%=      5-min Rain = 0
KPD4 150137Z 14008KT 26/19 A2968 RMK A01 T02640192  RH  065%=      5-min Rain = 0
KPD4 150138Z 14007KT 26/19 A2968 RMK A01 T02620192  RH  065%=      5-min Rain = 0
KPD4 150139Z 15007KT 26/19 A2968 RMK A01 T02620193  RH  066%=      5-min Rain = 0
KPD4 150140Z 14007KT 26/19 A2968 RMK A01 T02600193  RH  066%=      5-min Rain = 0
KPD4 150141Z 14007KT 26/19 A2968 RMK A01 T02600192  RH  066%=      5-min Rain = 0
KPD4 150142Z 15006KT 26/19 A2968 RMK A01 T02600192  RH  066%=      5-min Rain = 0
KPD4 150143Z 15007KT 26/19 A2968 RMK A01 T02600193  RH  066%=      5-min Rain = 0
KPD4 150144Z 15006KT 26/19 A2968 RMK A01 T02600193  RH  066%=      5-min Rain = 0
KPD4 150145Z 15008KT 26/19 A2968 RMK A01 T02590192  RH  067%=      5-min Rain = 0
KPD4 150146Z 15008KT 26/19 A2968 RMK A01 T02590191  RH  066%=      5-min Rain = 0
KPD4 150147Z 15010KT 26/19 A2968 RMK A01 T02590190  RH  066%=      5-min Rain = 0
KPD4 150148Z 16008KT 26/19 A2968 RMK A01 T02610190  RH  065%=      5-min Rain = 0
KPD4 150149Z 16008KT 26/19 A2968 RMK A01 T02610190  RH  065%=      5-min Rain = 0
KPD4 150150Z 16008KT 26/19 A2968 RMK A01 T02610190  RH  065%=      5-min Rain = 0
KPD4 150151Z 16009KT 26/19 A2968 RMK A01 T02610189  RH  065%=      5-min Rain = 0
KPD4 150152Z 16008KT 26/19 A2968 RMK A01 T02610189  RH  064%=      5-min Rain = 0
KPD4 150153Z 15010KT 26/19 A2968 RMK A01 T02610188  RH  064%=      5-min Rain = 0
KPD4 150154Z 16009KT 26/19 A2968 RMK A01 T02620187  RH  063%=      5-min Rain = 0
KPD4 150155Z 16011KT 26/19 A2968 RMK A01 T02620187  RH  063%=      5-min Rain = 0
KPD4 150156Z 16010KT 26/19 A2968 RMK A01 T02620187  RH  063%=      5-min Rain = 0
KPD4 150157Z 16010KT 26/19 A2968 RMK A01 T02620186  RH  063%=      5-min Rain = 0
KPD4 150158Z 16010KT 26/19 A2968 RMK A01 T02620186  RH  063%=      5-min Rain = 0
KPD4 150159Z 16009KT 26/19 A2968 RMK A01 T02610186  RH  063%=      5-min Rain = 0
KPD4 150200Z 17009KT 26/18 A2967 RMK A01 T02610184  RH  063%=      5-min Rain = 0
KPD4 150201Z 16009KT 26/18 A2968 RMK A01 T02620184  RH  062%=      5-min Rain = 0
KPD4 150202Z 16009KT 26/18 A2968 RMK A01 T02610183  RH  062%=      5-min Rain = 0
KPD4 150203Z 16009KT 26/18 A2968 RMK A01 T02610184  RH  063%=      5-min Rain = 0
KPD4 150204Z 16009KT 26/18 A2968 RMK A01 T02600183  RH  063%=      5-min Rain = 0
KPD4 150205Z 16010KT 26/18 A2968 RMK A01 T02600182  RH  062%=      5-min Rain = 0
KPD4 150206Z 16011KT 26/18 A2968 RMK A01 T02600181  RH  062%=      5-min Rain = 0
KPD4 150207Z 16011KT 26/18 A2968 RMK A01 T02600181  RH  062%=      5-min Rain = 0
KPD4 150208Z 16011KT 26/18 A2968 RMK A01 T02600180  RH  061%=      5-min Rain = 0
KPD4 150209Z 16010KT 26/18 A2967 RMK A01 T02600179  RH  061%=      5-min Rain = 0
KPD4 150210Z 16012KT 26/18 A2968 RMK A01 T02610178  RH  060%=      5-min Rain = 0
KPD4 150211Z 16010KT 26/18 A2968 RMK A01 T02610178  RH  060%=      5-min Rain = 0
KPD4 150212Z 16009KT 26/18 A2968 RMK A01 T02620179  RH  060%=      5-min Rain = 0
KPD4 150213Z 16010KT 26/18 A2968 RMK A01 T02610180  RH  061%=      5-min Rain = 0
KPD4 150214Z 15011KT 26/18 A2968 RMK A01 T02610180  RH  061%=      5-min Rain = 0
KPD4 150215Z 16011KT 26/18 A2968 RMK A01 T02600179  RH  061%=      5-min Rain = 0
KPD4 150216Z 15011KT 26/18 A2968 RMK A01 T02600178  RH  061%=      5-min Rain = 0
KPD4 150217Z 16012KT 26/18 A2968 RMK A01 T02600178  RH  060%=      5-min Rain = 0
KPD4 150218Z 16010KT 26/18 A2968 RMK A01 T02610178  RH  060%=      5-min Rain = 0
KPD4 150219Z 16011KT 26/18 A2968 RMK A01 T02610179  RH  060%=      5-min Rain = 0
KPD4 150220Z 16011KT 26/18 A2968 RMK A01 T02610179  RH  061%=      5-min Rain = 0
KPD4 150221Z 16010KT 26/18 A2968 RMK A01 T02610179  RH  061%=      5-min Rain = 0
KPD4 150222Z 16011KT 26/18 A2968 RMK A01 T02600180  RH  061%=      5-min Rain = 0
KPD4 150223Z 16010KT 26/18 A2968 RMK A01 T02600180  RH  061%=      5-min Rain = 0
KPD4 150224Z 16011KT 26/18 A2968 RMK A01 T02590180  RH  062%=      5-min Rain = 0
KPD4 150225Z 15011KT 26/18 A2968 RMK A01 T02580181  RH  062%=      5-min Rain = 0
KPD4 150226Z 16011KT 26/18 A2968 RMK A01 T02570180  RH  062%=      5-min Rain = 0
KPD4 150227Z 15012KT 26/18 A2968 RMK A01 T02570181  RH  063%=      5-min Rain = 0
KPD4 150228Z 16011KT 26/18 A2968 RMK A01 T02570180  RH  063%=      5-min Rain = 0
KPD4 150229Z 16011KT 26/18 A2968 RMK A01 T02570181  RH  063%=      5-min Rain = 0
KPD4 150230Z 16011KT 26/18 A2968 RMK A01 T02570181  RH  063%=      5-min Rain = 0
KPD4 150231Z 16012KT 26/18 A2968 RMK A01 T02570181  RH  063%=      5-min Rain = 0
KPD4 150232Z 16012KT 26/18 A2968 RMK A01 T02570181  RH  063%=      5-min Rain = 0
KPD4 150233Z 16013KT 26/18 A2968 RMK A01 T02570182  RH  063%=      5-min Rain = 0
KPD4 150234Z 16011KT 26/18 A2968 RMK A01 T02580182  RH  063%=      5-min Rain = 0
KPD4 150235Z 16012KT 26/18 A2968 RMK A01 T02570182  RH  063%=      5-min Rain = 0
KPD4 150236Z 16012KT 26/18 A2968 RMK A01 T02570182  RH  063%=      5-min Rain = 0
KPD4 150237Z 16011KT 26/18 A2968 RMK A01 T02570183  RH  064%=      5-min Rain = 0
KPD4 150238Z 16011KT 26/18 A2968 RMK A01 T02560183  RH  064%=      5-min Rain = 0
KPD4 150239Z 16012KT 26/18 A2968 RMK A01 T02560183  RH  064%=      5-min Rain = 0
KPD4 150240Z 16013KT 26/18 A2968 RMK A01 T02560183  RH  064%=      5-min Rain = 0
KPD4 150241Z 16012KT 26/18 A2968 RMK A01 T02560182  RH  064%=      5-min Rain = 0
KPD4 150242Z 16012KT 26/18 A2968 RMK A01 T02570183  RH  064%=      5-min Rain = 0
KPD4 150243Z 16012KT 26/18 A2968 RMK A01 T02570183  RH  064%=      5-min Rain = 0
KPD4 150244Z 16011KT 26/18 A2968 RMK A01 T02570184  RH  064%=      5-min Rain = 0
KPD4 150245Z 16011KT 26/18 A2968 RMK A01 T02560184  RH  064%=      5-min Rain = 0
KPD4 150246Z 16012KT 26/18 A2968 RMK A01 T02560184  RH  064%=      5-min Rain = 0
KPD4 150247Z 17010KT 26/18 A2968 RMK A01 T02560183  RH  064%=      5-min Rain = 0
KPD4 150248Z 17010KT 26/18 A2969 RMK A01 T02560183  RH  064%=      5-min Rain = 0
KPD4 150249Z 18008KT 26/18 A2969 RMK A01 T02560184  RH  064%=      5-min Rain = 0
KPD4 150250Z 21006KT 26/18 A297 RMK A01 T02550184  RH  064%=      5-min Rain = 0
KPD4 150251Z 28009G14KT 26/18 A2971 RMK A01 T02550184  RH  065%=      5-min Rain = 0
KPD4 150252Z 30015KT 25/18 A2972 RMK A01 T02540184  RH  065%=      5-min Rain = 0
KPD4 150253Z 31013KT 25/18 A2972 RMK A01 T02510184  RH  066%=      5-min Rain = 0
KPD4 150254Z 33011KT 25/18 A2972 RMK A01 T02500183  RH  066%=      5-min Rain = 0
KPD4 150255Z 34010KT 25/18 A2972 RMK A01 T02500183  RH  066%=      5-min Rain = 0
KPD4 150256Z 35010KT 25/18 A2972 RMK A01 T02500181  RH  066%=      5-min Rain = 0
KPD4 150257Z 34009KT 25/18 A2972 RMK A01 T02510181  RH  065%=      5-min Rain = 0
KPD4 150258Z 35004KT 25/18 A2972 RMK A01 T02520181  RH  065%=      5-min Rain = 0
KPD4 150259Z 35002KT 25/18 A2972 RMK A01 T02530181  RH  064%=      5-min Rain = 0
KPD4 150300Z 31004G11KT 25/18 A2972 RMK A01 T02530180  RH  064%=      5-min Rain = 0
KPD4 150301Z 29016KT 26/17 A2971 RMK A01 T02550171  RH  060%=      5-min Rain = 0
KPD4 150302Z 28013G19KT 26/17 A2972 RMK A01 T02640168  RH  055%=      5-min Rain = 0
KPD4 150303Z 30013KT 27/17 A2972 RMK A01 T02700169  RH  054%=      5-min Rain = 0
KPD4 150304Z 28008KT 27/17 A2972 RMK A01 T02720165  RH  052%=      5-min Rain = 0
KPD4 150305Z 22003KT 27/17 A2972 RMK A01 T02740167  RH  052%=      5-min Rain = 0
KPD4 150306Z 17007KT 28/16 A2972 RMK A01 T02750157  RH  048%=      5-min Rain = 0
KPD4 150307Z 18015G22KT 28/16 A2972 RMK A01 T02800161  RH  048%=      5-min Rain = 0
KPD4 150308Z 16019G26KT 28/16 A2972 RMK A01 T02810160  RH  048%=      5-min Rain = 0
KPD4 150309Z 16013KT 28/16 A2972 RMK A01 T02830156  RH  046%=      5-min Rain = 0
KPD4 150310Z 17017G23KT 28/15 A2972 RMK A01 T02840152  RH  045%=      5-min Rain = 0
KPD4 150311Z 20016G26KT 29/15 A2972 RMK A01 T02870149  RH  043%=      5-min Rain = 0
KPD4 150312Z 21007G20KT 29/15 A2972 RMK A01 T02890152  RH  043%=      5-min Rain = 0
KPD4 150313Z 21007KT 29/15 A2972 RMK A01 T02900154  RH  044%=      5-min Rain = 0
KPD4 150314Z 24002KT 29/16 A2973 RMK A01 T02890157  RH  045%=      5-min Rain = 0
KPD4 150315Z 15003KT 29/16 A2973 RMK A01 T02870159  RH  046%=      5-min Rain = 0
KPD4 150316Z 08005KT 29/16 A2973 RMK A01 T02860157  RH  046%=      5-min Rain = 0
KPD4 150317Z 04007KT 28/16 A2973 RMK A01 T02840159  RH  047%=      5-min Rain = 0
KPD4 150318Z 04008KT 28/16 A2973 RMK A01 T02840161  RH  047%=      5-min Rain = 0
KPD4 150319Z 05005KT 28/16 A2973 RMK A01 T02830162  RH  048%=      5-min Rain = 0
KPD4 150320Z 12005KT 28/16 A2973 RMK A01 T02810163  RH  049%=      5-min Rain = 0
KPD4 150321Z 12003KT 28/16 A2973 RMK A01 T02790164  RH  049%=      5-min Rain = 0
KPD4 150322Z 02003KT 28/16 A2973 RMK A01 T02790162  RH  049%=      5-min Rain = 0
KPD4 150323Z 00007KT 28/16 A2973 RMK A01 T02780163  RH  049%=      5-min Rain = 0
KPD4 150324Z 02013KT 28/16 A2973 RMK A01 T02770161  RH  049%=      5-min Rain = 0
KPD4 150325Z 03014KT 28/17 A2973 RMK A01 T02760167  RH  052%=      5-min Rain = 0
KPD4 150326Z 02011KT 27/17 A2974 RMK A01 T02720169  RH  053%=      5-min Rain = 0
KPD4 150327Z 03010KT 27/17 A2974 RMK A01 T02700170  RH  054%=      5-min Rain = 0
KPD4 150328Z 04014KT 27/17 A2974 RMK A01 T02670171  RH  056%=      5-min Rain = 0
KPD4 150329Z 03015KT 26/17 A2973 RMK A01 T02640172  RH  057%=      5-min Rain = 0
KPD4 150330Z 04016G21KT 26/17 A2973 RMK A01 T02610173  RH  059%=      5-min Rain = 0
KPD4 150331Z 06021KT 26/17 A2973 RMK A01 T02590172  RH  059%=      5-min Rain = 0
KPD4 150332Z 06017KT 26/17 A2973 RMK A01 T02600172  RH  058%=      5-min Rain = 0
KPD4 150333Z 06014KT 26/17 A2973 RMK A01 T02600173  RH  059%=      5-min Rain = 0
KPD4 150334Z 05014KT 26/17 A2973 RMK A01 T02590171  RH  058%=      5-min Rain = 0
KPD4 150335Z 06015KT 26/17 A2973 RMK A01 T02580168  RH  058%=      5-min Rain = 0
KPD4 150336Z 05013KT 26/16 A2973 RMK A01 T02560164  RH  057%=      5-min Rain = 0
KPD4 150337Z 05010G15KT 26/16 A2973 RMK A01 T02570161  RH  056%=      5-min Rain = 0
KPD4 150338Z 07013KT 26/16 A2973 RMK A01 T02570161  RH  055%=      5-min Rain = 0
KPD4 150339Z 08009KT 26/16 A2973 RMK A01 T02620161  RH  054%=      5-min Rain = 0
KPD4 150340Z 07013KT 27/16 A2974 RMK A01 T02680161  RH  052%=      5-min Rain = 0
KPD4 150341Z 07012KT 27/16 A2974 RMK A01 T02670161  RH  052%=      5-min Rain = 0
KPD4 150342Z 07013KT 26/16 A2973 RMK A01 T02630160  RH  053%=      5-min Rain = 0
KPD4 150343Z 06015G20KT 26/16 A2974 RMK A01 T02620160  RH  053%=      5-min Rain = 0
KPD4 150344Z 06012KT 27/16 A2974 RMK A01 T02650160  RH  053%=      5-min Rain = 0
KPD4 150345Z 07009KT 27/16 A2974 RMK A01 T02670161  RH  052%=      5-min Rain = 0
KPD4 150346Z 09010KT 27/16 A2974 RMK A01 T02670162  RH  053%=      5-min Rain = 0
KPD4 150347Z 07009G16KT 27/15 A2974 RMK A01 T02670154  RH  050%=      5-min Rain = 0
KPD4 150348Z 07009KT 27/16 A2974 RMK A01 T02730158  RH  049%=      5-min Rain = 0
KPD4 150349Z 08009KT 27/16 A2974 RMK A01 T02710160  RH  051%=      5-min Rain = 0
KPD4 150350Z 10008KT 27/16 A2974 RMK A01 T02690159  RH  051%=      5-min Rain = 0
KPD4 150351Z 10010KT 27/16 A2974 RMK A01 T02670160  RH  052%=      5-min Rain = 0
KPD4 150352Z 14009KT 27/16 A2975 RMK A01 T02670161  RH  052%=      5-min Rain = 0
KPD4 150353Z 12010KT 27/16 A2975 RMK A01 T02670158  RH  051%=      5-min Rain = 0
KPD4 150354Z 13010KT 27/16 A2975 RMK A01 T02690157  RH  050%=      5-min Rain = 0
KPD4 150355Z 12009KT 27/16 A2975 RMK A01 T02700159  RH  051%=      5-min Rain = 0
KPD4 150356Z 12007KT 27/16 A2975 RMK A01 T02690161  RH  051%=      5-min Rain = 0
KPD4 150357Z 13006KT 27/16 A2976 RMK A01 T02680162  RH  052%=      5-min Rain = 0
KPD4 150358Z 12004KT 27/16 A2976 RMK A01 T02660162  RH  053%=      5-min Rain = 0
KPD4 150359Z 14001KT 27/16 A2976 RMK A01 T02650163  RH  053%=      5-min Rain = 0
KPD4 150400Z 33000KT 26/16 A2977 RMK A01 T02640163  RH  053%=      5-min Rain = 0
KPD4 150401Z 33004KT 26/16 A2977 RMK A01 T02640164  RH  054%=      5-min Rain = 0
KPD4 150402Z 33006KT 26/17 A2978 RMK A01 T02610166  RH  056%=      5-min Rain = 0
KPD4 150403Z 33011KT 26/17 A2979 RMK A01 T02570166  RH  057%=      5-min Rain = 0
KPD4 150404Z 35015G20KT 25/16 A2979 RMK A01 T02520159  RH  056%=      5-min Rain = 0
KPD4 150405Z 35015G20KT 25/15 A2979 RMK A01 T02470150  RH  055%=      5-min Rain = 0
KPD4 150406Z 36008KT 25/15 A298 RMK A01 T02460148  RH  055%=      5-min Rain = 0
KPD4 150407Z 36011G17KT 24/15 A298 RMK A01 T02440151  RH  056%=      5-min Rain = 0
KPD4 150408Z 35016KT 24/15 A2979 RMK A01 T02430152  RH  057%=      5-min Rain = 0
KPD4 150409Z 00015KT 25/15 A298 RMK A01 T02450151  RH  056%=      5-min Rain = 0
KPD4 150410Z 01015KT 24/15 A2979 RMK A01 T02440150  RH  055%=      5-min Rain = 0
KPD4 150411Z 01014KT 24/15 A2979 RMK A01 T02440148  RH  055%=      5-min Rain = 0
KPD4 150412Z 02014KT 24/15 A2979 RMK A01 T02430149  RH  056%=      5-min Rain = 0
KPD4 150413Z 03013KT 24/15 A2978 RMK A01 T02410149  RH  056%=      5-min Rain = 0
KPD4 150414Z 04013KT 24/15 A2978 RMK A01 T02400150  RH  057%=      5-min Rain = 0
KPD4 150415Z 04015KT 24/15 A2978 RMK A01 T02390150  RH  057%=      5-min Rain = 0
KPD4 150416Z 05015KT 24/15 A2977 RMK A01 T02380150  RH  058%=      5-min Rain = 0
KPD4 150417Z 05014KT 24/15 A2978 RMK A01 T02380150  RH  058%=      5-min Rain = 0
KPD4 150418Z 05014KT 24/15 A2978 RMK A01 T02370149  RH  058%=      5-min Rain = 0
KPD4 150419Z 05015KT 24/15 A2978 RMK A01 T02360148  RH  058%=      5-min Rain = 0
KPD4 150420Z 05015KT 24/15 A2978 RMK A01 T02360146  RH  057%=      5-min Rain = 0
KPD4 150421Z 04014KT 24/15 A2978 RMK A01 T02360146  RH  057%=      5-min Rain = 0
KPD4 150422Z 04011KT 24/15 A2979 RMK A01 T02360147  RH  057%=      5-min Rain = 0
KPD4 150423Z 04010KT 24/15 A2979 RMK A01 T02360149  RH  058%=      5-min Rain = 0
KPD4 150424Z 03013KT 24/15 A2978 RMK A01 T02350150  RH  059%=      5-min Rain = 0
KPD4 150425Z 03015G20KT 23/15 A2978 RMK A01 T02340150  RH  059%=      5-min Rain = 0
KPD4 150426Z 03018G23KT 23/15 A2978 RMK A01 T02300149  RH  060%=      5-min Rain = 0
KPD4 150427Z 03016G22KT 23/15 A2978 RMK A01 T02260150  RH  062%=      5-min Rain = 0
KPD4 150428Z 04017KT 22/15 A2978 RMK A01 T02230150  RH  063%=      5-min Rain = 0
KPD4 150429Z 04016KT 22/15 A2978 RMK A01 T02200151  RH  065%=      5-min Rain = 0
KPD4 150430Z 04014KT 22/15 A2978 RMK A01 T02190151  RH  065%=      5-min Rain = 0
KPD4 150431Z 06013KT 22/15 A2978 RMK A01 T02190151  RH  065%=      5-min Rain = 0
KPD4 150432Z 07012KT 22/15 A2978 RMK A01 T02190151  RH  065%=      5-min Rain = 0
KPD4 150433Z 08011KT 22/15 A2978 RMK A01 T02190152  RH  066%=      5-min Rain = 0
KPD4 150434Z 08012KT 22/15 A2978 RMK A01 T02180152  RH  066%=      5-min Rain = 0
KPD4 150435Z 08011KT 22/15 A2978 RMK A01 T02180153  RH  067%=      5-min Rain = 0
KPD4 150436Z 09013G18KT 22/15 A2977 RMK A01 T02170153  RH  067%=      5-min Rain = 0
KPD4 150437Z 08013G21KT 22/15 A2977 RMK A01 T02170152  RH  067%=      5-min Rain = 0
KPD4 150438Z 07016KT 22/15 A2976 RMK A01 T02180151  RH  066%=      5-min Rain = 0
KPD4 150439Z 08015KT 22/15 A2976 RMK A01 T02200152  RH  065%=      5-min Rain = 0
KPD4 150440Z 08017KT 22/15 A2975 RMK A01 T02200152  RH  066%=      5-min Rain = 0
KPD4 150441Z 08016KT 22/15 A2975 RMK A01 T02190152  RH  066%=      5-min Rain = 0
KPD4 150442Z 08015KT 22/15 A2975 RMK A01 T02180153  RH  066%=      5-min Rain = 0
KPD4 150443Z 08014KT 22/15 A2975 RMK A01 T02170153  RH  067%=      5-min Rain = 0
KPD4 150444Z 08014KT 22/15 A2976 RMK A01 T02170153  RH  067%=      5-min Rain = 0
KPD4 150445Z 07012KT 22/15 A2976 RMK A01 T02180151  RH  066%=      5-min Rain = 0
KPD4 150446Z 08011KT 22/15 A2977 RMK A01 T02200151  RH  065%=      5-min Rain = 0
KPD4 150447Z 07009KT 22/15 A2977 RMK A01 T02210151  RH  064%=      5-min Rain = 0
KPD4 150448Z 07008KT 22/15 A2977 RMK A01 T02210150  RH  064%=      5-min Rain = 0
KPD4 150449Z 07008KT 22/15 A2977 RMK A01 T02220151  RH  064%=      5-min Rain = 0
KPD4 150450Z 08008KT 22/15 A2977 RMK A01 T02220152  RH  065%=      5-min Rain = 0
KPD4 150451Z 06007KT 22/15 A2977 RMK A01 T02210152  RH  065%=      5-min Rain = 0
KPD4 150452Z 07008KT 22/15 A2977 RMK A01 T02200152  RH  065%=      5-min Rain = 0
KPD4 150453Z 07011KT 22/15 A2977 RMK A01 T02200152  RH  065%=      5-min Rain = 0
KPD4 150454Z 06010KT 22/15 A2977 RMK A01 T02210152  RH  065%=      5-min Rain = 0
KPD4 150455Z 07010KT 22/15 A2977 RMK A01 T02210153  RH  065%=      5-min Rain = 0
KPD4 150456Z 07009KT 22/15 A2977 RMK A01 T02200153  RH  066%=      5-min Rain = 0
KPD4 150457Z 07010KT 22/15 A2977 RMK A01 T02200153  RH  066%=      5-min Rain = 0
KPD4 150458Z 06009KT 22/15 A2977 RMK A01 T02200153  RH  066%=      5-min Rain = 0
KPD4 150459Z 07009KT 22/15 A2977 RMK A01 T02200154  RH  066%=      5-min Rain = 0

Page generated in 0.1189 seconds.